<?xml version="1.0" encoding="UTF-8" standalone="no" ?>
<gpx xmlns="http://www.topografix.com/GPX/1/1" xmlns:xsi="http://www.w3.org/2001/XMLSchema-instance" xsi:schemaLocation="http://www.topografix.com/GPX/1/1 http://www.topografix.com/GPX/1/1/gpx.xsd" version="1.1" creator="VisuGPX - https://www.visugpx.com">
  <metadata>
    <name>Prospection chemins praticables 1</name>
  </metadata>
  <trk>
    <name><![CDATA[Tracé actuel: 18 AOU 2021 14:58 001]]></name>
    <extensions>
      <line xmlns="http://www.topografix.com/GPX/gpx_style/0/2">
        <color>0000FF</color>
        <width>4</width>
      </line>
    </extensions>
    <trkseg>
      <trkpt lat="47.70811" lon="5.1116">
        <ele>384.93</ele>
        <time>2021-08-21T07:18:19Z</time>
      </trkpt>
      <trkpt lat="47.70811" lon="5.1116">
        <ele>384.93</ele>
        <time>2021-08-21T07:18:19Z</time>
      </trkpt>
      <trkpt lat="47.70815" lon="5.11159">
        <ele>385.83</ele>
        <time>2021-08-21T07:18:22Z</time>
      </trkpt>
      <trkpt lat="47.70822" lon="5.11156">
        <ele>389.33</ele>
        <time>2021-08-21T07:18:28Z</time>
      </trkpt>
      <trkpt lat="47.70824" lon="5.11153">
        <ele>390.6</ele>
        <time>2021-08-21T07:18:30Z</time>
      </trkpt>
      <trkpt lat="47.70827" lon="5.11142">
        <ele>394.53</ele>
        <time>2021-08-21T07:18:36Z</time>
      </trkpt>
      <trkpt lat="47.70833" lon="5.11133">
        <ele>397.84</ele>
        <time>2021-08-21T07:18:42Z</time>
      </trkpt>
      <trkpt lat="47.70838" lon="5.11126">
        <ele>400.87</ele>
        <time>2021-08-21T07:18:47Z</time>
      </trkpt>
      <trkpt lat="47.7084" lon="5.11123">
        <ele>401.84</ele>
        <time>2021-08-21T07:18:49Z</time>
      </trkpt>
      <trkpt lat="47.70842" lon="5.11117">
        <ele>403.44</ele>
        <time>2021-08-21T07:18:52Z</time>
      </trkpt>
      <trkpt lat="47.7085" lon="5.11106">
        <ele>406.96</ele>
        <time>2021-08-21T07:18:59Z</time>
      </trkpt>
      <trkpt lat="47.70857" lon="5.11094">
        <ele>410</ele>
        <time>2021-08-21T07:19:07Z</time>
      </trkpt>
      <trkpt lat="47.70862" lon="5.11087">
        <ele>411.08</ele>
        <time>2021-08-21T07:19:17Z</time>
      </trkpt>
      <trkpt lat="47.70863" lon="5.11086">
        <ele>412.51</ele>
        <time>2021-08-21T07:19:19Z</time>
      </trkpt>
      <trkpt lat="47.70892" lon="5.11036">
        <ele>414.19</ele>
        <time>2021-08-21T07:51:50Z</time>
      </trkpt>
      <trkpt lat="47.70902" lon="5.11008">
        <ele>415.46</ele>
        <time>2021-08-21T07:52:06Z</time>
      </trkpt>
      <trkpt lat="47.70905" lon="5.10977">
        <ele>417.06</ele>
        <time>2021-08-21T07:52:21Z</time>
      </trkpt>
      <trkpt lat="47.70908" lon="5.10957">
        <ele>418.56</ele>
        <time>2021-08-21T07:52:32Z</time>
      </trkpt>
      <trkpt lat="47.70914" lon="5.10933">
        <ele>420.31</ele>
        <time>2021-08-21T07:52:46Z</time>
      </trkpt>
      <trkpt lat="47.70921" lon="5.10917">
        <ele>421.91</ele>
        <time>2021-08-21T07:52:57Z</time>
      </trkpt>
      <trkpt lat="47.70936" lon="5.10893">
        <ele>423.23</ele>
        <time>2021-08-21T07:53:12Z</time>
      </trkpt>
      <trkpt lat="47.70938" lon="5.1089">
        <ele>423.46</ele>
        <time>2021-08-21T07:53:14Z</time>
      </trkpt>
      <trkpt lat="47.70952" lon="5.1087">
        <ele>424.65</ele>
        <time>2021-08-21T07:53:29Z</time>
      </trkpt>
      <trkpt lat="47.70968" lon="5.10851">
        <ele>426.13</ele>
        <time>2021-08-21T07:53:44Z</time>
      </trkpt>
      <trkpt lat="47.70981" lon="5.10835">
        <ele>427.3</ele>
        <time>2021-08-21T07:53:57Z</time>
      </trkpt>
      <trkpt lat="47.70991" lon="5.10828">
        <ele>428.22</ele>
        <time>2021-08-21T07:54:07Z</time>
      </trkpt>
      <trkpt lat="47.71" lon="5.10824">
        <ele>428.55</ele>
        <time>2021-08-21T07:54:13Z</time>
      </trkpt>
      <trkpt lat="47.71014" lon="5.10817">
        <ele>430</ele>
        <time>2021-08-21T07:54:24Z</time>
      </trkpt>
      <trkpt lat="47.7103" lon="5.10813">
        <ele>431.56</ele>
        <time>2021-08-21T07:54:37Z</time>
      </trkpt>
      <trkpt lat="47.71052" lon="5.10807">
        <ele>433.65</ele>
        <time>2021-08-21T07:54:54Z</time>
      </trkpt>
      <trkpt lat="47.71062" lon="5.108">
        <ele>434.68</ele>
        <time>2021-08-21T07:55:02Z</time>
      </trkpt>
      <trkpt lat="47.71073" lon="5.10776">
        <ele>436.96</ele>
        <time>2021-08-21T07:55:19Z</time>
      </trkpt>
      <trkpt lat="47.7109" lon="5.10749">
        <ele>439.15</ele>
        <time>2021-08-21T07:55:38Z</time>
      </trkpt>
      <trkpt lat="47.71104" lon="5.1073">
        <ele>440.48</ele>
        <time>2021-08-21T07:55:52Z</time>
      </trkpt>
      <trkpt lat="47.71123" lon="5.10715">
        <ele>441.17</ele>
        <time>2021-08-21T07:56:08Z</time>
      </trkpt>
      <trkpt lat="47.71135" lon="5.10709">
        <ele>441.38</ele>
        <time>2021-08-21T07:56:17Z</time>
      </trkpt>
      <trkpt lat="47.71153" lon="5.10701">
        <ele>442.16</ele>
        <time>2021-08-21T07:56:31Z</time>
      </trkpt>
      <trkpt lat="47.71169" lon="5.1069">
        <ele>442.54</ele>
        <time>2021-08-21T07:56:44Z</time>
      </trkpt>
      <trkpt lat="47.71188" lon="5.10678">
        <ele>443.37</ele>
        <time>2021-08-21T07:56:59Z</time>
      </trkpt>
      <trkpt lat="47.71207" lon="5.10663">
        <ele>444.34</ele>
        <time>2021-08-21T07:57:14Z</time>
      </trkpt>
      <trkpt lat="47.71217" lon="5.10654">
        <ele>445.03</ele>
        <time>2021-08-21T07:57:24Z</time>
      </trkpt>
      <trkpt lat="47.71238" lon="5.10634">
        <ele>446.34</ele>
        <time>2021-08-21T07:57:42Z</time>
      </trkpt>
      <trkpt lat="47.71253" lon="5.10612">
        <ele>448.18</ele>
        <time>2021-08-21T07:57:59Z</time>
      </trkpt>
      <trkpt lat="47.71269" lon="5.10591">
        <ele>450.17</ele>
        <time>2021-08-21T07:58:16Z</time>
      </trkpt>
      <trkpt lat="47.71288" lon="5.10574">
        <ele>452.92</ele>
        <time>2021-08-21T07:58:35Z</time>
      </trkpt>
      <trkpt lat="47.71304" lon="5.10559">
        <ele>455.03</ele>
        <time>2021-08-21T07:58:50Z</time>
      </trkpt>
      <trkpt lat="47.71318" lon="5.10546">
        <ele>457.23</ele>
        <time>2021-08-21T07:59:06Z</time>
      </trkpt>
      <trkpt lat="47.71319" lon="5.10545">
        <ele>457.01</ele>
        <time>2021-08-21T07:59:08Z</time>
      </trkpt>
      <trkpt lat="47.7132" lon="5.10544">
        <ele>457.19</ele>
        <time>2021-08-21T07:59:09Z</time>
      </trkpt>
      <trkpt lat="47.71336" lon="5.1053">
        <ele>459.25</ele>
        <time>2021-08-21T07:59:24Z</time>
      </trkpt>
      <trkpt lat="47.71356" lon="5.10522">
        <ele>461.54</ele>
        <time>2021-08-21T07:59:41Z</time>
      </trkpt>
      <trkpt lat="47.71371" lon="5.10515">
        <ele>463.16</ele>
        <time>2021-08-21T07:59:54Z</time>
      </trkpt>
      <trkpt lat="47.71386" lon="5.10506">
        <ele>464.9</ele>
        <time>2021-08-21T08:00:08Z</time>
      </trkpt>
      <trkpt lat="47.71404" lon="5.10494">
        <ele>466.17</ele>
        <time>2021-08-21T08:00:23Z</time>
      </trkpt>
      <trkpt lat="47.71424" lon="5.10481">
        <ele>468.47</ele>
        <time>2021-08-21T08:00:41Z</time>
      </trkpt>
      <trkpt lat="47.71438" lon="5.10473">
        <ele>470.35</ele>
        <time>2021-08-21T08:00:54Z</time>
      </trkpt>
      <trkpt lat="47.7145" lon="5.10468">
        <ele>471.69</ele>
        <time>2021-08-21T08:01:04Z</time>
      </trkpt>
      <trkpt lat="47.71469" lon="5.10458">
        <ele>472.99</ele>
        <time>2021-08-21T08:01:18Z</time>
      </trkpt>
      <trkpt lat="47.71486" lon="5.10442">
        <ele>474.47</ele>
        <time>2021-08-21T08:01:34Z</time>
      </trkpt>
      <trkpt lat="47.71502" lon="5.10428">
        <ele>476.1</ele>
        <time>2021-08-21T08:01:48Z</time>
      </trkpt>
      <trkpt lat="47.71503" lon="5.10428">
        <ele>476.27</ele>
        <time>2021-08-21T08:01:49Z</time>
      </trkpt>
      <trkpt lat="47.71517" lon="5.10423">
        <ele>475.92</ele>
        <time>2021-08-21T08:02:01Z</time>
      </trkpt>
      <trkpt lat="47.71526" lon="5.10403">
        <ele>476.17</ele>
        <time>2021-08-21T08:02:13Z</time>
      </trkpt>
      <trkpt lat="47.71531" lon="5.10374">
        <ele>476.09</ele>
        <time>2021-08-21T08:02:28Z</time>
      </trkpt>
      <trkpt lat="47.71542" lon="5.10338">
        <ele>476.48</ele>
        <time>2021-08-21T08:02:47Z</time>
      </trkpt>
      <trkpt lat="47.71551" lon="5.10308">
        <ele>476.46</ele>
        <time>2021-08-21T08:03:02Z</time>
      </trkpt>
      <trkpt lat="47.71566" lon="5.10272">
        <ele>476.27</ele>
        <time>2021-08-21T08:03:22Z</time>
      </trkpt>
      <trkpt lat="47.7158" lon="5.10237">
        <ele>476.31</ele>
        <time>2021-08-21T08:03:41Z</time>
      </trkpt>
      <trkpt lat="47.71593" lon="5.10206">
        <ele>476.41</ele>
        <time>2021-08-21T08:03:58Z</time>
      </trkpt>
      <trkpt lat="47.71607" lon="5.10183">
        <ele>476.46</ele>
        <time>2021-08-21T08:04:13Z</time>
      </trkpt>
      <trkpt lat="47.71623" lon="5.10156">
        <ele>476.22</ele>
        <time>2021-08-21T08:04:30Z</time>
      </trkpt>
      <trkpt lat="47.71644" lon="5.10121">
        <ele>476.24</ele>
        <time>2021-08-21T08:04:52Z</time>
      </trkpt>
      <trkpt lat="47.71658" lon="5.10097">
        <ele>476.11</ele>
        <time>2021-08-21T08:05:07Z</time>
      </trkpt>
      <trkpt lat="47.7167" lon="5.10075">
        <ele>476.02</ele>
        <time>2021-08-21T08:05:21Z</time>
      </trkpt>
      <trkpt lat="47.71671" lon="5.10074">
        <ele>476.04</ele>
        <time>2021-08-21T08:05:22Z</time>
      </trkpt>
      <trkpt lat="47.71672" lon="5.10072">
        <ele>476.07</ele>
        <time>2021-08-21T08:05:23Z</time>
      </trkpt>
      <trkpt lat="47.71678" lon="5.10056">
        <ele>476</ele>
        <time>2021-08-21T08:05:33Z</time>
      </trkpt>
      <trkpt lat="47.7168" lon="5.10057">
        <ele>476</ele>
        <time>2021-08-21T08:06:09Z</time>
      </trkpt>
      <trkpt lat="47.71681" lon="5.10055">
        <ele>475.89</ele>
        <time>2021-08-21T08:06:20Z</time>
      </trkpt>
      <trkpt lat="47.71682" lon="5.10054">
        <ele>475.97</ele>
        <time>2021-08-21T08:06:21Z</time>
      </trkpt>
      <trkpt lat="47.71694" lon="5.10032">
        <ele>475.78</ele>
        <time>2021-08-21T08:06:36Z</time>
      </trkpt>
      <trkpt lat="47.71708" lon="5.10008">
        <ele>475.53</ele>
        <time>2021-08-21T08:06:51Z</time>
      </trkpt>
      <trkpt lat="47.71719" lon="5.09987">
        <ele>475.52</ele>
        <time>2021-08-21T08:07:04Z</time>
      </trkpt>
      <trkpt lat="47.71724" lon="5.09978">
        <ele>475.53</ele>
        <time>2021-08-21T08:07:10Z</time>
      </trkpt>
      <trkpt lat="47.71726" lon="5.09976">
        <ele>475.27</ele>
        <time>2021-08-21T08:07:11Z</time>
      </trkpt>
      <trkpt lat="47.71727" lon="5.09974">
        <ele>475.45</ele>
        <time>2021-08-21T08:07:12Z</time>
      </trkpt>
      <trkpt lat="47.71741" lon="5.0995">
        <ele>475.32</ele>
        <time>2021-08-21T08:07:27Z</time>
      </trkpt>
      <trkpt lat="47.71745" lon="5.09942">
        <ele>475.19</ele>
        <time>2021-08-21T08:07:32Z</time>
      </trkpt>
      <trkpt lat="47.71755" lon="5.09923">
        <ele>475.1</ele>
        <time>2021-08-21T08:07:45Z</time>
      </trkpt>
      <trkpt lat="47.71763" lon="5.09903">
        <ele>475.25</ele>
        <time>2021-08-21T08:07:57Z</time>
      </trkpt>
      <trkpt lat="47.71762" lon="5.09901">
        <ele>475.34</ele>
        <time>2021-08-21T08:07:58Z</time>
      </trkpt>
      <trkpt lat="47.7176" lon="5.09897">
        <ele>475.48</ele>
        <time>2021-08-21T08:08:00Z</time>
      </trkpt>
      <trkpt lat="47.7176" lon="5.09896">
        <ele>475.69</ele>
        <time>2021-08-21T08:08:01Z</time>
      </trkpt>
      <trkpt lat="47.71753" lon="5.09878">
        <ele>475.53</ele>
        <time>2021-08-21T08:08:17Z</time>
      </trkpt>
      <trkpt lat="47.71753" lon="5.09873">
        <ele>475.48</ele>
        <time>2021-08-21T08:08:53Z</time>
      </trkpt>
      <trkpt lat="47.71753" lon="5.09867">
        <ele>475.28</ele>
        <time>2021-08-21T08:08:57Z</time>
      </trkpt>
      <trkpt lat="47.71752" lon="5.09857">
        <ele>475.14</ele>
        <time>2021-08-21T08:09:03Z</time>
      </trkpt>
      <trkpt lat="47.71743" lon="5.09825">
        <ele>474.92</ele>
        <time>2021-08-21T08:09:23Z</time>
      </trkpt>
      <trkpt lat="47.71739" lon="5.09811">
        <ele>474.62</ele>
        <time>2021-08-21T08:09:31Z</time>
      </trkpt>
      <trkpt lat="47.71736" lon="5.09803">
        <ele>474.38</ele>
        <time>2021-08-21T08:09:35Z</time>
      </trkpt>
      <trkpt lat="47.71726" lon="5.09779">
        <ele>473.67</ele>
        <time>2021-08-21T08:09:49Z</time>
      </trkpt>
      <trkpt lat="47.71724" lon="5.09768">
        <ele>473.26</ele>
        <time>2021-08-21T08:09:55Z</time>
      </trkpt>
      <trkpt lat="47.71715" lon="5.09747">
        <ele>473.05</ele>
        <time>2021-08-21T08:10:10Z</time>
      </trkpt>
      <trkpt lat="47.71713" lon="5.09741">
        <ele>472.8</ele>
        <time>2021-08-21T08:10:18Z</time>
      </trkpt>
      <trkpt lat="47.71711" lon="5.0973">
        <ele>472.42</ele>
        <time>2021-08-21T08:10:24Z</time>
      </trkpt>
      <trkpt lat="47.7171" lon="5.09721">
        <ele>472.43</ele>
        <time>2021-08-21T08:10:30Z</time>
      </trkpt>
      <trkpt lat="47.71704" lon="5.09695">
        <ele>471.77</ele>
        <time>2021-08-21T08:10:46Z</time>
      </trkpt>
      <trkpt lat="47.71699" lon="5.09696">
        <ele>471.48</ele>
        <time>2021-08-21T08:11:18Z</time>
      </trkpt>
      <trkpt lat="47.71684" lon="5.09697">
        <ele>471.64</ele>
        <time>2021-08-21T08:11:32Z</time>
      </trkpt>
      <trkpt lat="47.71678" lon="5.09699">
        <ele>471.59</ele>
        <time>2021-08-21T08:11:40Z</time>
      </trkpt>
      <trkpt lat="47.71666" lon="5.09705">
        <ele>472.06</ele>
        <time>2021-08-21T08:11:50Z</time>
      </trkpt>
      <trkpt lat="47.71655" lon="5.09715">
        <ele>472.14</ele>
        <time>2021-08-21T08:12:06Z</time>
      </trkpt>
      <trkpt lat="47.71663" lon="5.09717">
        <ele>471.23</ele>
        <time>2021-08-21T08:12:20Z</time>
      </trkpt>
      <trkpt lat="47.71672" lon="5.09713">
        <ele>471.74</ele>
        <time>2021-08-21T08:12:28Z</time>
      </trkpt>
      <trkpt lat="47.71685" lon="5.09708">
        <ele>471.44</ele>
        <time>2021-08-21T08:12:40Z</time>
      </trkpt>
      <trkpt lat="47.717" lon="5.09701">
        <ele>471.59</ele>
        <time>2021-08-21T08:12:55Z</time>
      </trkpt>
      <trkpt lat="47.71709" lon="5.09695">
        <ele>471.54</ele>
        <time>2021-08-21T08:13:02Z</time>
      </trkpt>
      <trkpt lat="47.71719" lon="5.09684">
        <ele>471.47</ele>
        <time>2021-08-21T08:13:13Z</time>
      </trkpt>
      <trkpt lat="47.71723" lon="5.09681">
        <ele>471.48</ele>
        <time>2021-08-21T08:13:16Z</time>
      </trkpt>
      <trkpt lat="47.71732" lon="5.0967">
        <ele>470.91</ele>
        <time>2021-08-21T08:13:26Z</time>
      </trkpt>
      <trkpt lat="47.71746" lon="5.09657">
        <ele>470.8</ele>
        <time>2021-08-21T08:13:40Z</time>
      </trkpt>
      <trkpt lat="47.71761" lon="5.09645">
        <ele>470.43</ele>
        <time>2021-08-21T08:13:55Z</time>
      </trkpt>
      <trkpt lat="47.71775" lon="5.09636">
        <ele>470.38</ele>
        <time>2021-08-21T08:14:09Z</time>
      </trkpt>
      <trkpt lat="47.71782" lon="5.09631">
        <ele>470.08</ele>
        <time>2021-08-21T08:14:16Z</time>
      </trkpt>
      <trkpt lat="47.71791" lon="5.09627">
        <ele>470.48</ele>
        <time>2021-08-21T08:14:24Z</time>
      </trkpt>
      <trkpt lat="47.71803" lon="5.09617">
        <ele>469.16</ele>
        <time>2021-08-21T08:14:38Z</time>
      </trkpt>
      <trkpt lat="47.71807" lon="5.09607">
        <ele>468.8</ele>
        <time>2021-08-21T08:14:44Z</time>
      </trkpt>
      <trkpt lat="47.71812" lon="5.09594">
        <ele>468.66</ele>
        <time>2021-08-21T08:14:53Z</time>
      </trkpt>
      <trkpt lat="47.71815" lon="5.09584">
        <ele>468.63</ele>
        <time>2021-08-21T08:14:59Z</time>
      </trkpt>
      <trkpt lat="47.71816" lon="5.0958">
        <ele>468.65</ele>
        <time>2021-08-21T08:15:01Z</time>
      </trkpt>
      <trkpt lat="47.71819" lon="5.09573">
        <ele>468.83</ele>
        <time>2021-08-21T08:15:06Z</time>
      </trkpt>
      <trkpt lat="47.71823" lon="5.09564">
        <ele>468.87</ele>
        <time>2021-08-21T08:15:12Z</time>
      </trkpt>
      <trkpt lat="47.71828" lon="5.09549">
        <ele>468.74</ele>
        <time>2021-08-21T08:15:23Z</time>
      </trkpt>
      <trkpt lat="47.7183" lon="5.09536">
        <ele>468.86</ele>
        <time>2021-08-21T08:15:30Z</time>
      </trkpt>
      <trkpt lat="47.71836" lon="5.09524">
        <ele>469.39</ele>
        <time>2021-08-21T08:15:41Z</time>
      </trkpt>
      <trkpt lat="47.71839" lon="5.09514">
        <ele>469.95</ele>
        <time>2021-08-21T08:15:48Z</time>
      </trkpt>
      <trkpt lat="47.71847" lon="5.09487">
        <ele>469.92</ele>
        <time>2021-08-21T08:16:04Z</time>
      </trkpt>
      <trkpt lat="47.71853" lon="5.09473">
        <ele>469.79</ele>
        <time>2021-08-21T08:16:14Z</time>
      </trkpt>
      <trkpt lat="47.71857" lon="5.09459">
        <ele>469.65</ele>
        <time>2021-08-21T08:16:24Z</time>
      </trkpt>
      <trkpt lat="47.71871" lon="5.09436">
        <ele>469.27</ele>
        <time>2021-08-21T08:16:42Z</time>
      </trkpt>
      <trkpt lat="47.71883" lon="5.09417">
        <ele>468.76</ele>
        <time>2021-08-21T08:16:58Z</time>
      </trkpt>
      <trkpt lat="47.71891" lon="5.09405">
        <ele>468.43</ele>
        <time>2021-08-21T08:17:09Z</time>
      </trkpt>
      <trkpt lat="47.71896" lon="5.09397">
        <ele>468.32</ele>
        <time>2021-08-21T08:17:15Z</time>
      </trkpt>
      <trkpt lat="47.71901" lon="5.09387">
        <ele>468.06</ele>
        <time>2021-08-21T08:17:23Z</time>
      </trkpt>
      <trkpt lat="47.71908" lon="5.09375">
        <ele>467.71</ele>
        <time>2021-08-21T08:17:31Z</time>
      </trkpt>
      <trkpt lat="47.7191" lon="5.0937">
        <ele>467.61</ele>
        <time>2021-08-21T08:17:35Z</time>
      </trkpt>
      <trkpt lat="47.71923" lon="5.09356">
        <ele>467.23</ele>
        <time>2021-08-21T08:17:51Z</time>
      </trkpt>
      <trkpt lat="47.7193" lon="5.0935">
        <ele>466.96</ele>
        <time>2021-08-21T08:17:58Z</time>
      </trkpt>
      <trkpt lat="47.71939" lon="5.09346">
        <ele>466.81</ele>
        <time>2021-08-21T08:18:07Z</time>
      </trkpt>
      <trkpt lat="47.71957" lon="5.0934">
        <ele>466.63</ele>
        <time>2021-08-21T08:18:22Z</time>
      </trkpt>
      <trkpt lat="47.71968" lon="5.09335">
        <ele>466.5</ele>
        <time>2021-08-21T08:18:37Z</time>
      </trkpt>
      <trkpt lat="47.71978" lon="5.09327">
        <ele>465.64</ele>
        <time>2021-08-21T08:18:49Z</time>
      </trkpt>
      <trkpt lat="47.71994" lon="5.09324">
        <ele>465.27</ele>
        <time>2021-08-21T08:19:05Z</time>
      </trkpt>
      <trkpt lat="47.72" lon="5.09322">
        <ele>465.05</ele>
        <time>2021-08-21T08:19:10Z</time>
      </trkpt>
      <trkpt lat="47.72013" lon="5.09318">
        <ele>464.79</ele>
        <time>2021-08-21T08:19:22Z</time>
      </trkpt>
      <trkpt lat="47.72024" lon="5.09319">
        <ele>464.58</ele>
        <time>2021-08-21T08:19:40Z</time>
      </trkpt>
      <trkpt lat="47.72029" lon="5.09317">
        <ele>464.62</ele>
        <time>2021-08-21T08:19:58Z</time>
      </trkpt>
      <trkpt lat="47.72034" lon="5.09313">
        <ele>464.28</ele>
        <time>2021-08-21T08:20:31Z</time>
      </trkpt>
      <trkpt lat="47.7204" lon="5.09306">
        <ele>464.06</ele>
        <time>2021-08-21T08:20:46Z</time>
      </trkpt>
      <trkpt lat="47.72052" lon="5.09297">
        <ele>463.72</ele>
        <time>2021-08-21T08:21:01Z</time>
      </trkpt>
      <trkpt lat="47.72054" lon="5.09293">
        <ele>463.33</ele>
        <time>2021-08-21T08:21:16Z</time>
      </trkpt>
      <trkpt lat="47.72055" lon="5.09305">
        <ele>463.81</ele>
        <time>2021-08-21T08:21:28Z</time>
      </trkpt>
      <trkpt lat="47.7206" lon="5.0932">
        <ele>464.3</ele>
        <time>2021-08-21T08:21:39Z</time>
      </trkpt>
      <trkpt lat="47.72065" lon="5.09341">
        <ele>465.3</ele>
        <time>2021-08-21T08:21:54Z</time>
      </trkpt>
      <trkpt lat="47.72071" lon="5.09363">
        <ele>465.91</ele>
        <time>2021-08-21T08:22:09Z</time>
      </trkpt>
      <trkpt lat="47.7207" lon="5.09375">
        <ele>468.75</ele>
        <time>2021-08-21T08:22:25Z</time>
      </trkpt>
      <trkpt lat="47.72075" lon="5.0938">
        <ele>469.61</ele>
        <time>2021-08-21T08:22:42Z</time>
      </trkpt>
      <trkpt lat="47.72072" lon="5.09376">
        <ele>468.91</ele>
        <time>2021-08-21T08:22:58Z</time>
      </trkpt>
      <trkpt lat="47.72067" lon="5.09362">
        <ele>465.77</ele>
        <time>2021-08-21T08:23:14Z</time>
      </trkpt>
      <trkpt lat="47.72061" lon="5.0934">
        <ele>465.1</ele>
        <time>2021-08-21T08:23:28Z</time>
      </trkpt>
      <trkpt lat="47.72056" lon="5.09321">
        <ele>464.41</ele>
        <time>2021-08-21T08:23:43Z</time>
      </trkpt>
      <trkpt lat="47.72055" lon="5.09312">
        <ele>463.66</ele>
        <time>2021-08-21T08:23:50Z</time>
      </trkpt>
      <trkpt lat="47.72052" lon="5.09296">
        <ele>463.02</ele>
        <time>2021-08-21T08:24:03Z</time>
      </trkpt>
      <trkpt lat="47.72058" lon="5.09288">
        <ele>463.07</ele>
        <time>2021-08-21T08:24:10Z</time>
      </trkpt>
      <trkpt lat="47.72061" lon="5.09283">
        <ele>462.98</ele>
        <time>2021-08-21T08:24:13Z</time>
      </trkpt>
      <trkpt lat="47.72067" lon="5.09279">
        <ele>463.12</ele>
        <time>2021-08-21T08:24:19Z</time>
      </trkpt>
      <trkpt lat="47.72077" lon="5.09262">
        <ele>463.66</ele>
        <time>2021-08-21T08:24:32Z</time>
      </trkpt>
      <trkpt lat="47.72087" lon="5.09246">
        <ele>463.67</ele>
        <time>2021-08-21T08:24:44Z</time>
      </trkpt>
      <trkpt lat="47.72089" lon="5.09243">
        <ele>463.68</ele>
        <time>2021-08-21T08:24:47Z</time>
      </trkpt>
      <trkpt lat="47.72099" lon="5.09222">
        <ele>463.7</ele>
        <time>2021-08-21T08:25:02Z</time>
      </trkpt>
      <trkpt lat="47.721" lon="5.09217">
        <ele>463.66</ele>
        <time>2021-08-21T08:25:05Z</time>
      </trkpt>
      <trkpt lat="47.72105" lon="5.09204">
        <ele>463.68</ele>
        <time>2021-08-21T08:25:14Z</time>
      </trkpt>
      <trkpt lat="47.72107" lon="5.09199">
        <ele>463.58</ele>
        <time>2021-08-21T08:25:17Z</time>
      </trkpt>
      <trkpt lat="47.72112" lon="5.09188">
        <ele>463.67</ele>
        <time>2021-08-21T08:25:25Z</time>
      </trkpt>
      <trkpt lat="47.72115" lon="5.09184">
        <ele>463.78</ele>
        <time>2021-08-21T08:25:29Z</time>
      </trkpt>
      <trkpt lat="47.72116" lon="5.09178">
        <ele>463.56</ele>
        <time>2021-08-21T08:25:33Z</time>
      </trkpt>
      <trkpt lat="47.72118" lon="5.09172">
        <ele>463.41</ele>
        <time>2021-08-21T08:25:36Z</time>
      </trkpt>
      <trkpt lat="47.72127" lon="5.09148">
        <ele>463.39</ele>
        <time>2021-08-21T08:25:52Z</time>
      </trkpt>
      <trkpt lat="47.72128" lon="5.09141">
        <ele>463.19</ele>
        <time>2021-08-21T08:25:56Z</time>
      </trkpt>
      <trkpt lat="47.72129" lon="5.09134">
        <ele>463.11</ele>
        <time>2021-08-21T08:26:00Z</time>
      </trkpt>
      <trkpt lat="47.7213" lon="5.09119">
        <ele>462.86</ele>
        <time>2021-08-21T08:26:11Z</time>
      </trkpt>
      <trkpt lat="47.72132" lon="5.09113">
        <ele>462.84</ele>
        <time>2021-08-21T08:26:14Z</time>
      </trkpt>
      <trkpt lat="47.72134" lon="5.09106">
        <ele>462.39</ele>
        <time>2021-08-21T08:26:19Z</time>
      </trkpt>
      <trkpt lat="47.72136" lon="5.09103">
        <ele>462.26</ele>
        <time>2021-08-21T08:26:21Z</time>
      </trkpt>
      <trkpt lat="47.72141" lon="5.09082">
        <ele>461.61</ele>
        <time>2021-08-21T08:26:36Z</time>
      </trkpt>
      <trkpt lat="47.72141" lon="5.09079">
        <ele>461.4</ele>
        <time>2021-08-21T08:27:00Z</time>
      </trkpt>
      <trkpt lat="47.72151" lon="5.09081">
        <ele>461.45</ele>
        <time>2021-08-21T08:27:08Z</time>
      </trkpt>
      <trkpt lat="47.72165" lon="5.09082">
        <ele>462.14</ele>
        <time>2021-08-21T08:27:22Z</time>
      </trkpt>
      <trkpt lat="47.7218" lon="5.09083">
        <ele>462.63</ele>
        <time>2021-08-21T08:27:34Z</time>
      </trkpt>
      <trkpt lat="47.72194" lon="5.09082">
        <ele>462.86</ele>
        <time>2021-08-21T08:27:48Z</time>
      </trkpt>
      <trkpt lat="47.72198" lon="5.09084">
        <ele>463.08</ele>
        <time>2021-08-21T08:27:54Z</time>
      </trkpt>
      <trkpt lat="47.72215" lon="5.09092">
        <ele>463.94</ele>
        <time>2021-08-21T08:28:13Z</time>
      </trkpt>
      <trkpt lat="47.72214" lon="5.0908">
        <ele>465.14</ele>
        <time>2021-08-21T08:28:26Z</time>
      </trkpt>
      <trkpt lat="47.7221" lon="5.09078">
        <ele>467.61</ele>
        <time>2021-08-21T08:28:32Z</time>
      </trkpt>
      <trkpt lat="47.72205" lon="5.09075">
        <ele>466.23</ele>
        <time>2021-08-21T08:28:47Z</time>
      </trkpt>
      <trkpt lat="47.72201" lon="5.09079">
        <ele>464.27</ele>
        <time>2021-08-21T08:29:06Z</time>
      </trkpt>
      <trkpt lat="47.72199" lon="5.0908">
        <ele>462.88</ele>
        <time>2021-08-21T08:29:13Z</time>
      </trkpt>
      <trkpt lat="47.72182" lon="5.09078">
        <ele>462.07</ele>
        <time>2021-08-21T08:29:29Z</time>
      </trkpt>
      <trkpt lat="47.72166" lon="5.09079">
        <ele>461.22</ele>
        <time>2021-08-21T08:29:44Z</time>
      </trkpt>
      <trkpt lat="47.72159" lon="5.09081">
        <ele>460.9</ele>
        <time>2021-08-21T08:29:52Z</time>
      </trkpt>
      <trkpt lat="47.72145" lon="5.09074">
        <ele>460.24</ele>
        <time>2021-08-21T08:30:06Z</time>
      </trkpt>
      <trkpt lat="47.72137" lon="5.09064">
        <ele>459.2</ele>
        <time>2021-08-21T08:30:18Z</time>
      </trkpt>
      <trkpt lat="47.72129" lon="5.09051">
        <ele>458.67</ele>
        <time>2021-08-21T08:30:32Z</time>
      </trkpt>
      <trkpt lat="47.7214" lon="5.09055">
        <ele>459.35</ele>
        <time>2021-08-21T08:30:44Z</time>
      </trkpt>
      <trkpt lat="47.72149" lon="5.09054">
        <ele>460.13</ele>
        <time>2021-08-21T08:30:53Z</time>
      </trkpt>
      <trkpt lat="47.72159" lon="5.0905">
        <ele>461.01</ele>
        <time>2021-08-21T08:31:04Z</time>
      </trkpt>
      <trkpt lat="47.72162" lon="5.09048">
        <ele>461.38</ele>
        <time>2021-08-21T08:31:07Z</time>
      </trkpt>
      <trkpt lat="47.7218" lon="5.09032">
        <ele>463.7</ele>
        <time>2021-08-21T08:31:26Z</time>
      </trkpt>
      <trkpt lat="47.72193" lon="5.0902">
        <ele>464.72</ele>
        <time>2021-08-21T08:31:40Z</time>
      </trkpt>
      <trkpt lat="47.72202" lon="5.09008">
        <ele>465.49</ele>
        <time>2021-08-21T08:31:52Z</time>
      </trkpt>
      <trkpt lat="47.72212" lon="5.08988">
        <ele>465.31</ele>
        <time>2021-08-21T08:32:07Z</time>
      </trkpt>
      <trkpt lat="47.72218" lon="5.08984">
        <ele>465.57</ele>
        <time>2021-08-21T08:32:14Z</time>
      </trkpt>
      <trkpt lat="47.72226" lon="5.0898">
        <ele>466.37</ele>
        <time>2021-08-21T08:32:21Z</time>
      </trkpt>
      <trkpt lat="47.72238" lon="5.08979">
        <ele>466.07</ele>
        <time>2021-08-21T08:32:34Z</time>
      </trkpt>
      <trkpt lat="47.72242" lon="5.08986">
        <ele>465.29</ele>
        <time>2021-08-21T08:32:38Z</time>
      </trkpt>
      <trkpt lat="47.72243" lon="5.08993">
        <ele>464.94</ele>
        <time>2021-08-21T08:32:43Z</time>
      </trkpt>
      <trkpt lat="47.72246" lon="5.09004">
        <ele>464.95</ele>
        <time>2021-08-21T08:32:51Z</time>
      </trkpt>
      <trkpt lat="47.72249" lon="5.09017">
        <ele>464.94</ele>
        <time>2021-08-21T08:33:00Z</time>
      </trkpt>
      <trkpt lat="47.72251" lon="5.09026">
        <ele>464.85</ele>
        <time>2021-08-21T08:33:06Z</time>
      </trkpt>
      <trkpt lat="47.72256" lon="5.09044">
        <ele>464.88</ele>
        <time>2021-08-21T08:33:22Z</time>
      </trkpt>
      <trkpt lat="47.72254" lon="5.09055">
        <ele>464.72</ele>
        <time>2021-08-21T08:33:29Z</time>
      </trkpt>
      <trkpt lat="47.72262" lon="5.09077">
        <ele>465.06</ele>
        <time>2021-08-21T08:33:44Z</time>
      </trkpt>
      <trkpt lat="47.72268" lon="5.09091">
        <ele>465.55</ele>
        <time>2021-08-21T08:33:56Z</time>
      </trkpt>
      <trkpt lat="47.72278" lon="5.0909">
        <ele>466.09</ele>
        <time>2021-08-21T08:34:09Z</time>
      </trkpt>
      <trkpt lat="47.72271" lon="5.09087">
        <ele>465.21</ele>
        <time>2021-08-21T08:34:29Z</time>
      </trkpt>
      <trkpt lat="47.7227" lon="5.09087">
        <ele>465.1</ele>
        <time>2021-08-21T08:34:30Z</time>
      </trkpt>
      <trkpt lat="47.72267" lon="5.09087">
        <ele>465.04</ele>
        <time>2021-08-21T08:34:33Z</time>
      </trkpt>
      <trkpt lat="47.72261" lon="5.09087">
        <ele>464.78</ele>
        <time>2021-08-21T08:34:39Z</time>
      </trkpt>
      <trkpt lat="47.72244" lon="5.09085">
        <ele>464.03</ele>
        <time>2021-08-21T08:34:54Z</time>
      </trkpt>
      <trkpt lat="47.72229" lon="5.09085">
        <ele>463</ele>
        <time>2021-08-21T08:35:08Z</time>
      </trkpt>
      <trkpt lat="47.72227" lon="5.09085">
        <ele>462.91</ele>
        <time>2021-08-21T08:35:09Z</time>
      </trkpt>
      <trkpt lat="47.72222" lon="5.09083">
        <ele>462.72</ele>
        <time>2021-08-21T08:35:13Z</time>
      </trkpt>
      <trkpt lat="47.72213" lon="5.0908">
        <ele>463.79</ele>
        <time>2021-08-21T08:35:25Z</time>
      </trkpt>
      <trkpt lat="47.72212" lon="5.09079">
        <ele>465.98</ele>
        <time>2021-08-21T08:35:27Z</time>
      </trkpt>
      <trkpt lat="47.72212" lon="5.09078">
        <ele>465.82</ele>
        <time>2021-08-21T08:35:29Z</time>
      </trkpt>
      <trkpt lat="47.72212" lon="5.09057">
        <ele>465.69</ele>
        <time>2021-08-21T08:35:42Z</time>
      </trkpt>
      <trkpt lat="47.72217" lon="5.0903">
        <ele>465.58</ele>
        <time>2021-08-21T08:35:57Z</time>
      </trkpt>
      <trkpt lat="47.72222" lon="5.09004">
        <ele>465.38</ele>
        <time>2021-08-21T08:36:11Z</time>
      </trkpt>
      <trkpt lat="47.72223" lon="5.08995">
        <ele>465.37</ele>
        <time>2021-08-21T08:36:16Z</time>
      </trkpt>
      <trkpt lat="47.72226" lon="5.08983">
        <ele>465.53</ele>
        <time>2021-08-21T08:36:25Z</time>
      </trkpt>
      <trkpt lat="47.72222" lon="5.08975">
        <ele>465.48</ele>
        <time>2021-08-21T08:36:41Z</time>
      </trkpt>
      <trkpt lat="47.72213" lon="5.08981">
        <ele>464.26</ele>
        <time>2021-08-21T08:36:55Z</time>
      </trkpt>
      <trkpt lat="47.72215" lon="5.08983">
        <ele>464.03</ele>
        <time>2021-08-21T08:37:27Z</time>
      </trkpt>
      <trkpt lat="47.72214" lon="5.08986">
        <ele>464.12</ele>
        <time>2021-08-21T08:37:29Z</time>
      </trkpt>
      <trkpt lat="47.72207" lon="5.09003">
        <ele>464.1</ele>
        <time>2021-08-21T08:37:40Z</time>
      </trkpt>
      <trkpt lat="47.72191" lon="5.09018">
        <ele>463.27</ele>
        <time>2021-08-21T08:37:56Z</time>
      </trkpt>
      <trkpt lat="47.7219" lon="5.09018">
        <ele>463.26</ele>
        <time>2021-08-21T08:37:57Z</time>
      </trkpt>
      <trkpt lat="47.72182" lon="5.09023">
        <ele>462.62</ele>
        <time>2021-08-21T08:38:05Z</time>
      </trkpt>
      <trkpt lat="47.72175" lon="5.09029">
        <ele>461.89</ele>
        <time>2021-08-21T08:38:12Z</time>
      </trkpt>
      <trkpt lat="47.72168" lon="5.09034">
        <ele>461.13</ele>
        <time>2021-08-21T08:38:19Z</time>
      </trkpt>
      <trkpt lat="47.72151" lon="5.09042">
        <ele>458.9</ele>
        <time>2021-08-21T08:38:35Z</time>
      </trkpt>
      <trkpt lat="47.7214" lon="5.09045">
        <ele>458.34</ele>
        <time>2021-08-21T08:38:44Z</time>
      </trkpt>
      <trkpt lat="47.7213" lon="5.09045">
        <ele>457.39</ele>
        <time>2021-08-21T08:38:54Z</time>
      </trkpt>
      <trkpt lat="47.72121" lon="5.09044">
        <ele>456.56</ele>
        <time>2021-08-21T08:39:03Z</time>
      </trkpt>
      <trkpt lat="47.7212" lon="5.09042">
        <ele>456.76</ele>
        <time>2021-08-21T08:39:07Z</time>
      </trkpt>
      <trkpt lat="47.72121" lon="5.09029">
        <ele>456.66</ele>
        <time>2021-08-21T08:39:21Z</time>
      </trkpt>
      <trkpt lat="47.72117" lon="5.09019">
        <ele>456.03</ele>
        <time>2021-08-21T08:39:36Z</time>
      </trkpt>
      <trkpt lat="47.72116" lon="5.0902">
        <ele>456.15</ele>
        <time>2021-08-21T08:39:41Z</time>
      </trkpt>
      <trkpt lat="47.72121" lon="5.09026">
        <ele>456.53</ele>
        <time>2021-08-21T08:39:45Z</time>
      </trkpt>
      <trkpt lat="47.72122" lon="5.09016">
        <ele>456.48</ele>
        <time>2021-08-21T08:39:57Z</time>
      </trkpt>
      <trkpt lat="47.72123" lon="5.09014">
        <ele>456.14</ele>
        <time>2021-08-21T08:39:59Z</time>
      </trkpt>
      <trkpt lat="47.7212" lon="5.09006">
        <ele>456.86</ele>
        <time>2021-08-21T08:40:05Z</time>
      </trkpt>
      <trkpt lat="47.72111" lon="5.08994">
        <ele>457.89</ele>
        <time>2021-08-21T08:40:18Z</time>
      </trkpt>
      <trkpt lat="47.72102" lon="5.08974">
        <ele>458</ele>
        <time>2021-08-21T08:40:35Z</time>
      </trkpt>
      <trkpt lat="47.72094" lon="5.08963">
        <ele>458.64</ele>
        <time>2021-08-21T08:40:48Z</time>
      </trkpt>
      <trkpt lat="47.7209" lon="5.08949">
        <ele>458.63</ele>
        <time>2021-08-21T08:41:03Z</time>
      </trkpt>
      <trkpt lat="47.72091" lon="5.08948">
        <ele>458.52</ele>
        <time>2021-08-21T08:41:17Z</time>
      </trkpt>
      <trkpt lat="47.72084" lon="5.08944">
        <ele>458.63</ele>
        <time>2021-08-21T08:41:30Z</time>
      </trkpt>
      <trkpt lat="47.7208" lon="5.08938">
        <ele>458.7</ele>
        <time>2021-08-21T08:41:40Z</time>
      </trkpt>
      <trkpt lat="47.72072" lon="5.08925">
        <ele>458.84</ele>
        <time>2021-08-21T08:41:55Z</time>
      </trkpt>
      <trkpt lat="47.72071" lon="5.0892">
        <ele>458.76</ele>
        <time>2021-08-21T08:42:05Z</time>
      </trkpt>
      <trkpt lat="47.7207" lon="5.08918">
        <ele>459.25</ele>
        <time>2021-08-21T08:42:07Z</time>
      </trkpt>
      <trkpt lat="47.72062" lon="5.08896">
        <ele>460.5</ele>
        <time>2021-08-21T08:42:23Z</time>
      </trkpt>
      <trkpt lat="47.7206" lon="5.08894">
        <ele>460.93</ele>
        <time>2021-08-21T08:42:26Z</time>
      </trkpt>
      <trkpt lat="47.72053" lon="5.08883">
        <ele>461.34</ele>
        <time>2021-08-21T08:42:35Z</time>
      </trkpt>
      <trkpt lat="47.72038" lon="5.08872">
        <ele>460.87</ele>
        <time>2021-08-21T08:42:50Z</time>
      </trkpt>
      <trkpt lat="47.72024" lon="5.08862">
        <ele>460.8</ele>
        <time>2021-08-21T08:43:05Z</time>
      </trkpt>
      <trkpt lat="47.72015" lon="5.08856">
        <ele>460.5</ele>
        <time>2021-08-21T08:43:17Z</time>
      </trkpt>
      <trkpt lat="47.72011" lon="5.08853">
        <ele>460.66</ele>
        <time>2021-08-21T08:43:22Z</time>
      </trkpt>
      <trkpt lat="47.72007" lon="5.08849">
        <ele>460.45</ele>
        <time>2021-08-21T08:43:25Z</time>
      </trkpt>
      <trkpt lat="47.72004" lon="5.08847">
        <ele>460.81</ele>
        <time>2021-08-21T08:43:28Z</time>
      </trkpt>
      <trkpt lat="47.71999" lon="5.08844">
        <ele>460.53</ele>
        <time>2021-08-21T08:43:33Z</time>
      </trkpt>
      <trkpt lat="47.71989" lon="5.08835">
        <ele>460.4</ele>
        <time>2021-08-21T08:43:47Z</time>
      </trkpt>
      <trkpt lat="47.71981" lon="5.0883">
        <ele>460.18</ele>
        <time>2021-08-21T08:43:59Z</time>
      </trkpt>
      <trkpt lat="47.71974" lon="5.08824">
        <ele>460.13</ele>
        <time>2021-08-21T08:44:13Z</time>
      </trkpt>
      <trkpt lat="47.71968" lon="5.08815">
        <ele>459.7</ele>
        <time>2021-08-21T08:44:25Z</time>
      </trkpt>
      <trkpt lat="47.71961" lon="5.08805">
        <ele>459.61</ele>
        <time>2021-08-21T08:44:40Z</time>
      </trkpt>
      <trkpt lat="47.71961" lon="5.08806">
        <ele>459.78</ele>
        <time>2021-08-21T08:44:56Z</time>
      </trkpt>
      <trkpt lat="47.71962" lon="5.08807">
        <ele>459.91</ele>
        <time>2021-08-21T08:45:01Z</time>
      </trkpt>
      <trkpt lat="47.71966" lon="5.08804">
        <ele>460.2</ele>
        <time>2021-08-21T08:45:16Z</time>
      </trkpt>
      <trkpt lat="47.71963" lon="5.08802">
        <ele>460.13</ele>
        <time>2021-08-21T08:45:19Z</time>
      </trkpt>
      <trkpt lat="47.71953" lon="5.08799">
        <ele>459.75</ele>
        <time>2021-08-21T08:45:33Z</time>
      </trkpt>
      <trkpt lat="47.71946" lon="5.08788">
        <ele>459.55</ele>
        <time>2021-08-21T08:45:44Z</time>
      </trkpt>
      <trkpt lat="47.71943" lon="5.08775">
        <ele>460.36</ele>
        <time>2021-08-21T08:45:58Z</time>
      </trkpt>
      <trkpt lat="47.71942" lon="5.08752">
        <ele>460.2</ele>
        <time>2021-08-21T08:46:12Z</time>
      </trkpt>
      <trkpt lat="47.71941" lon="5.08727">
        <ele>460.04</ele>
        <time>2021-08-21T08:46:31Z</time>
      </trkpt>
      <trkpt lat="47.71942" lon="5.08722">
        <ele>460.7</ele>
        <time>2021-08-21T08:46:34Z</time>
      </trkpt>
      <trkpt lat="47.71946" lon="5.08704">
        <ele>460.08</ele>
        <time>2021-08-21T08:46:47Z</time>
      </trkpt>
      <trkpt lat="47.71941" lon="5.08701">
        <ele>460.19</ele>
        <time>2021-08-21T08:47:17Z</time>
      </trkpt>
      <trkpt lat="47.71926" lon="5.08696">
        <ele>459.05</ele>
        <time>2021-08-21T08:47:32Z</time>
      </trkpt>
      <trkpt lat="47.71915" lon="5.08691">
        <ele>458.34</ele>
        <time>2021-08-21T08:47:45Z</time>
      </trkpt>
      <trkpt lat="47.71909" lon="5.0869">
        <ele>457.29</ele>
        <time>2021-08-21T08:48:01Z</time>
      </trkpt>
      <trkpt lat="47.71907" lon="5.08691">
        <ele>457.34</ele>
        <time>2021-08-21T08:48:16Z</time>
      </trkpt>
      <trkpt lat="47.71905" lon="5.08692">
        <ele>457.44</ele>
        <time>2021-08-21T08:48:41Z</time>
      </trkpt>
      <trkpt lat="47.7191" lon="5.08696">
        <ele>457.83</ele>
        <time>2021-08-21T08:48:46Z</time>
      </trkpt>
      <trkpt lat="47.71916" lon="5.08699">
        <ele>458.1</ele>
        <time>2021-08-21T08:48:58Z</time>
      </trkpt>
      <trkpt lat="47.71927" lon="5.08703">
        <ele>459.69</ele>
        <time>2021-08-21T08:49:12Z</time>
      </trkpt>
      <trkpt lat="47.71939" lon="5.08707">
        <ele>459.73</ele>
        <time>2021-08-21T08:49:26Z</time>
      </trkpt>
      <trkpt lat="47.71944" lon="5.08708">
        <ele>460.82</ele>
        <time>2021-08-21T08:49:30Z</time>
      </trkpt>
      <trkpt lat="47.71947" lon="5.08699">
        <ele>460.72</ele>
        <time>2021-08-21T08:49:43Z</time>
      </trkpt>
      <trkpt lat="47.71963" lon="5.08706">
        <ele>461.16</ele>
        <time>2021-08-21T08:49:59Z</time>
      </trkpt>
      <trkpt lat="47.71977" lon="5.08707">
        <ele>461.49</ele>
        <time>2021-08-21T08:50:13Z</time>
      </trkpt>
      <trkpt lat="47.71978" lon="5.08705">
        <ele>461.03</ele>
        <time>2021-08-21T08:50:15Z</time>
      </trkpt>
      <trkpt lat="47.71966" lon="5.087">
        <ele>461</ele>
        <time>2021-08-21T08:50:28Z</time>
      </trkpt>
      <trkpt lat="47.71959" lon="5.08699">
        <ele>460.97</ele>
        <time>2021-08-21T08:50:42Z</time>
      </trkpt>
      <trkpt lat="47.71953" lon="5.08694">
        <ele>460.33</ele>
        <time>2021-08-21T08:50:54Z</time>
      </trkpt>
      <trkpt lat="47.71951" lon="5.08688">
        <ele>460.03</ele>
        <time>2021-08-21T08:50:58Z</time>
      </trkpt>
      <trkpt lat="47.71953" lon="5.0868">
        <ele>459.89</ele>
        <time>2021-08-21T08:51:04Z</time>
      </trkpt>
      <trkpt lat="47.71955" lon="5.08668">
        <ele>459.52</ele>
        <time>2021-08-21T08:51:12Z</time>
      </trkpt>
      <trkpt lat="47.71957" lon="5.08663">
        <ele>459.32</ele>
        <time>2021-08-21T08:51:15Z</time>
      </trkpt>
      <trkpt lat="47.7196" lon="5.08654">
        <ele>459.13</ele>
        <time>2021-08-21T08:51:22Z</time>
      </trkpt>
      <trkpt lat="47.71965" lon="5.08646">
        <ele>458.82</ele>
        <time>2021-08-21T08:51:29Z</time>
      </trkpt>
      <trkpt lat="47.71968" lon="5.0864">
        <ele>458.85</ele>
        <time>2021-08-21T08:51:33Z</time>
      </trkpt>
      <trkpt lat="47.71977" lon="5.08624">
        <ele>457.83</ele>
        <time>2021-08-21T08:51:47Z</time>
      </trkpt>
      <trkpt lat="47.71979" lon="5.08618">
        <ele>457.89</ele>
        <time>2021-08-21T08:51:51Z</time>
      </trkpt>
      <trkpt lat="47.71992" lon="5.086">
        <ele>457.2</ele>
        <time>2021-08-21T08:52:05Z</time>
      </trkpt>
      <trkpt lat="47.71997" lon="5.08595">
        <ele>456.76</ele>
        <time>2021-08-21T08:52:10Z</time>
      </trkpt>
      <trkpt lat="47.72006" lon="5.08584">
        <ele>456.74</ele>
        <time>2021-08-21T08:52:20Z</time>
      </trkpt>
      <trkpt lat="47.72011" lon="5.08579">
        <ele>456.45</ele>
        <time>2021-08-21T08:52:25Z</time>
      </trkpt>
      <trkpt lat="47.72015" lon="5.08577">
        <ele>456.53</ele>
        <time>2021-08-21T08:52:30Z</time>
      </trkpt>
      <trkpt lat="47.72028" lon="5.08568">
        <ele>456.03</ele>
        <time>2021-08-21T08:52:44Z</time>
      </trkpt>
      <trkpt lat="47.72035" lon="5.08561">
        <ele>455.83</ele>
        <time>2021-08-21T08:52:51Z</time>
      </trkpt>
      <trkpt lat="47.72037" lon="5.08544">
        <ele>455.37</ele>
        <time>2021-08-21T08:53:07Z</time>
      </trkpt>
      <trkpt lat="47.72033" lon="5.08541">
        <ele>455.21</ele>
        <time>2021-08-21T08:53:12Z</time>
      </trkpt>
      <trkpt lat="47.7203" lon="5.0854">
        <ele>455.1</ele>
        <time>2021-08-21T08:53:15Z</time>
      </trkpt>
      <trkpt lat="47.72024" lon="5.08536">
        <ele>454.75</ele>
        <time>2021-08-21T08:53:23Z</time>
      </trkpt>
      <trkpt lat="47.72014" lon="5.08531">
        <ele>454.18</ele>
        <time>2021-08-21T08:53:36Z</time>
      </trkpt>
      <trkpt lat="47.72005" lon="5.08521">
        <ele>453.64</ele>
        <time>2021-08-21T08:53:49Z</time>
      </trkpt>
      <trkpt lat="47.71999" lon="5.0852">
        <ele>453.17</ele>
        <time>2021-08-21T08:54:04Z</time>
      </trkpt>
      <trkpt lat="47.71999" lon="5.08519">
        <ele>453.16</ele>
        <time>2021-08-21T08:54:06Z</time>
      </trkpt>
      <trkpt lat="47.72007" lon="5.08511">
        <ele>453.01</ele>
        <time>2021-08-21T08:54:19Z</time>
      </trkpt>
      <trkpt lat="47.72003" lon="5.08508">
        <ele>452.68</ele>
        <time>2021-08-21T08:54:28Z</time>
      </trkpt>
      <trkpt lat="47.71999" lon="5.08522">
        <ele>453.79</ele>
        <time>2021-08-21T08:54:39Z</time>
      </trkpt>
      <trkpt lat="47.72008" lon="5.08535">
        <ele>454.21</ele>
        <time>2021-08-21T08:54:51Z</time>
      </trkpt>
      <trkpt lat="47.72011" lon="5.08537">
        <ele>454.53</ele>
        <time>2021-08-21T08:54:58Z</time>
      </trkpt>
      <trkpt lat="47.72023" lon="5.08544">
        <ele>454.93</ele>
        <time>2021-08-21T08:55:07Z</time>
      </trkpt>
      <trkpt lat="47.72036" lon="5.08555">
        <ele>455.22</ele>
        <time>2021-08-21T08:55:23Z</time>
      </trkpt>
      <trkpt lat="47.72048" lon="5.08543">
        <ele>454.72</ele>
        <time>2021-08-21T08:55:33Z</time>
      </trkpt>
      <trkpt lat="47.7205" lon="5.0854">
        <ele>454.91</ele>
        <time>2021-08-21T08:55:35Z</time>
      </trkpt>
      <trkpt lat="47.72055" lon="5.08533">
        <ele>454.29</ele>
        <time>2021-08-21T08:55:42Z</time>
      </trkpt>
      <trkpt lat="47.72056" lon="5.0853">
        <ele>454.35</ele>
        <time>2021-08-21T08:55:44Z</time>
      </trkpt>
      <trkpt lat="47.72064" lon="5.08515">
        <ele>453.49</ele>
        <time>2021-08-21T08:55:55Z</time>
      </trkpt>
      <trkpt lat="47.72066" lon="5.0851">
        <ele>453.03</ele>
        <time>2021-08-21T08:55:58Z</time>
      </trkpt>
      <trkpt lat="47.72068" lon="5.08505">
        <ele>452.92</ele>
        <time>2021-08-21T08:56:01Z</time>
      </trkpt>
      <trkpt lat="47.72074" lon="5.08492">
        <ele>452.17</ele>
        <time>2021-08-21T08:56:13Z</time>
      </trkpt>
      <trkpt lat="47.72076" lon="5.08489">
        <ele>452.13</ele>
        <time>2021-08-21T08:56:15Z</time>
      </trkpt>
      <trkpt lat="47.72086" lon="5.08466">
        <ele>451.67</ele>
        <time>2021-08-21T08:56:30Z</time>
      </trkpt>
      <trkpt lat="47.72095" lon="5.08445">
        <ele>452.14</ele>
        <time>2021-08-21T08:56:45Z</time>
      </trkpt>
      <trkpt lat="47.72098" lon="5.08436">
        <ele>452.57</ele>
        <time>2021-08-21T08:57:02Z</time>
      </trkpt>
      <trkpt lat="47.72099" lon="5.08433">
        <ele>452.02</ele>
        <time>2021-08-21T08:57:19Z</time>
      </trkpt>
      <trkpt lat="47.72098" lon="5.08434">
        <ele>450.99</ele>
        <time>2021-08-21T08:57:21Z</time>
      </trkpt>
      <trkpt lat="47.72098" lon="5.08435">
        <ele>452.82</ele>
        <time>2021-08-21T08:57:23Z</time>
      </trkpt>
      <trkpt lat="47.72098" lon="5.08433">
        <ele>452.19</ele>
        <time>2021-08-21T08:57:25Z</time>
      </trkpt>
      <trkpt lat="47.72096" lon="5.0841">
        <ele>452.08</ele>
        <time>2021-08-21T08:57:41Z</time>
      </trkpt>
      <trkpt lat="47.72091" lon="5.08404">
        <ele>452.16</ele>
        <time>2021-08-21T08:57:58Z</time>
      </trkpt>
      <trkpt lat="47.72091" lon="5.08415">
        <ele>451.93</ele>
        <time>2021-08-21T08:58:05Z</time>
      </trkpt>
      <trkpt lat="47.72097" lon="5.08436">
        <ele>452.39</ele>
        <time>2021-08-21T08:58:20Z</time>
      </trkpt>
      <trkpt lat="47.721" lon="5.08433">
        <ele>452.44</ele>
        <time>2021-08-21T08:58:23Z</time>
      </trkpt>
      <trkpt lat="47.72107" lon="5.08424">
        <ele>452.71</ele>
        <time>2021-08-21T08:58:39Z</time>
      </trkpt>
      <trkpt lat="47.72109" lon="5.08402">
        <ele>452.82</ele>
        <time>2021-08-21T08:58:54Z</time>
      </trkpt>
      <trkpt lat="47.72113" lon="5.08384">
        <ele>453.77</ele>
        <time>2021-08-21T08:59:07Z</time>
      </trkpt>
      <trkpt lat="47.7211" lon="5.08359">
        <ele>454.38</ele>
        <time>2021-08-21T08:59:25Z</time>
      </trkpt>
      <trkpt lat="47.72113" lon="5.08343">
        <ele>455.8</ele>
        <time>2021-08-21T08:59:40Z</time>
      </trkpt>
      <trkpt lat="47.72119" lon="5.08342">
        <ele>455.92</ele>
        <time>2021-08-21T08:59:47Z</time>
      </trkpt>
      <trkpt lat="47.72124" lon="5.08333">
        <ele>457.04</ele>
        <time>2021-08-21T08:59:55Z</time>
      </trkpt>
      <trkpt lat="47.72123" lon="5.08324">
        <ele>457.16</ele>
        <time>2021-08-21T09:00:03Z</time>
      </trkpt>
      <trkpt lat="47.72122" lon="5.0832">
        <ele>457.48</ele>
        <time>2021-08-21T09:00:16Z</time>
      </trkpt>
      <trkpt lat="47.72122" lon="5.0832">
        <ele>457.74</ele>
        <time>2021-08-21T09:00:18Z</time>
      </trkpt>
      <trkpt lat="47.72118" lon="5.08304">
        <ele>458.87</ele>
        <time>2021-08-21T09:00:31Z</time>
      </trkpt>
      <trkpt lat="47.72125" lon="5.08288">
        <ele>458.95</ele>
        <time>2021-08-21T09:00:46Z</time>
      </trkpt>
      <trkpt lat="47.7213" lon="5.0828">
        <ele>458.86</ele>
        <time>2021-08-21T09:00:58Z</time>
      </trkpt>
      <trkpt lat="47.72136" lon="5.08274">
        <ele>459.23</ele>
        <time>2021-08-21T09:01:13Z</time>
      </trkpt>
      <trkpt lat="47.72138" lon="5.08277">
        <ele>458.72</ele>
        <time>2021-08-21T09:01:18Z</time>
      </trkpt>
      <trkpt lat="47.72142" lon="5.08274">
        <ele>458.64</ele>
        <time>2021-08-21T09:01:32Z</time>
      </trkpt>
      <trkpt lat="47.72135" lon="5.08265">
        <ele>458.53</ele>
        <time>2021-08-21T09:01:44Z</time>
      </trkpt>
      <trkpt lat="47.72132" lon="5.0826">
        <ele>458.43</ele>
        <time>2021-08-21T09:01:57Z</time>
      </trkpt>
      <trkpt lat="47.7213" lon="5.08266">
        <ele>458.42</ele>
        <time>2021-08-21T09:02:02Z</time>
      </trkpt>
      <trkpt lat="47.72125" lon="5.0828">
        <ele>458.91</ele>
        <time>2021-08-21T09:02:17Z</time>
      </trkpt>
      <trkpt lat="47.72122" lon="5.08286">
        <ele>458.78</ele>
        <time>2021-08-21T09:02:30Z</time>
      </trkpt>
      <trkpt lat="47.72126" lon="5.08286">
        <ele>458.53</ele>
        <time>2021-08-21T09:03:23Z</time>
      </trkpt>
      <trkpt lat="47.72124" lon="5.0829">
        <ele>458.41</ele>
        <time>2021-08-21T09:03:26Z</time>
      </trkpt>
      <trkpt lat="47.72115" lon="5.08305">
        <ele>457.99</ele>
        <time>2021-08-21T09:03:40Z</time>
      </trkpt>
      <trkpt lat="47.72115" lon="5.08311">
        <ele>457.55</ele>
        <time>2021-08-21T09:03:46Z</time>
      </trkpt>
      <trkpt lat="47.72118" lon="5.08322">
        <ele>457.11</ele>
        <time>2021-08-21T09:04:04Z</time>
      </trkpt>
      <trkpt lat="47.72122" lon="5.08334">
        <ele>456</ele>
        <time>2021-08-21T09:04:34Z</time>
      </trkpt>
      <trkpt lat="47.72119" lon="5.08339">
        <ele>455.19</ele>
        <time>2021-08-21T09:04:41Z</time>
      </trkpt>
      <trkpt lat="47.7211" lon="5.08347">
        <ele>454.74</ele>
        <time>2021-08-21T09:04:56Z</time>
      </trkpt>
      <trkpt lat="47.72109" lon="5.08351">
        <ele>453.34</ele>
        <time>2021-08-21T09:04:59Z</time>
      </trkpt>
      <trkpt lat="47.72108" lon="5.08353">
        <ele>454.47</ele>
        <time>2021-08-21T09:05:01Z</time>
      </trkpt>
      <trkpt lat="47.72108" lon="5.08356">
        <ele>454.19</ele>
        <time>2021-08-21T09:05:04Z</time>
      </trkpt>
      <trkpt lat="47.72107" lon="5.08364">
        <ele>453.91</ele>
        <time>2021-08-21T09:05:11Z</time>
      </trkpt>
      <trkpt lat="47.72106" lon="5.08381">
        <ele>453.12</ele>
        <time>2021-08-21T09:05:25Z</time>
      </trkpt>
      <trkpt lat="47.72106" lon="5.0839">
        <ele>452.28</ele>
        <time>2021-08-21T09:05:39Z</time>
      </trkpt>
      <trkpt lat="47.72106" lon="5.08406">
        <ele>452.05</ele>
        <time>2021-08-21T09:05:51Z</time>
      </trkpt>
      <trkpt lat="47.72106" lon="5.08411">
        <ele>451.81</ele>
        <time>2021-08-21T09:05:54Z</time>
      </trkpt>
      <trkpt lat="47.721" lon="5.08432">
        <ele>451.59</ele>
        <time>2021-08-21T09:06:11Z</time>
      </trkpt>
      <trkpt lat="47.72099" lon="5.08435">
        <ele>451.43</ele>
        <time>2021-08-21T09:06:31Z</time>
      </trkpt>
      <trkpt lat="47.72097" lon="5.0843">
        <ele>451.29</ele>
        <time>2021-08-21T09:06:50Z</time>
      </trkpt>
      <trkpt lat="47.72096" lon="5.0841">
        <ele>451.14</ele>
        <time>2021-08-21T09:07:03Z</time>
      </trkpt>
      <trkpt lat="47.72095" lon="5.08405">
        <ele>451.6</ele>
        <time>2021-08-21T09:07:07Z</time>
      </trkpt>
      <trkpt lat="47.72094" lon="5.084">
        <ele>451.68</ele>
        <time>2021-08-21T09:07:10Z</time>
      </trkpt>
      <trkpt lat="47.72092" lon="5.08377">
        <ele>453</ele>
        <time>2021-08-21T09:07:26Z</time>
      </trkpt>
      <trkpt lat="47.72091" lon="5.08371">
        <ele>453.17</ele>
        <time>2021-08-21T09:07:30Z</time>
      </trkpt>
      <trkpt lat="47.72086" lon="5.0835">
        <ele>454.14</ele>
        <time>2021-08-21T09:07:45Z</time>
      </trkpt>
      <trkpt lat="47.72084" lon="5.08341">
        <ele>454.61</ele>
        <time>2021-08-21T09:08:01Z</time>
      </trkpt>
      <trkpt lat="47.72084" lon="5.08334">
        <ele>454.98</ele>
        <time>2021-08-21T09:08:22Z</time>
      </trkpt>
      <trkpt lat="47.72084" lon="5.08329">
        <ele>454.97</ele>
        <time>2021-08-21T09:08:25Z</time>
      </trkpt>
      <trkpt lat="47.7208" lon="5.08303">
        <ele>454.93</ele>
        <time>2021-08-21T09:08:41Z</time>
      </trkpt>
      <trkpt lat="47.72078" lon="5.0829">
        <ele>455.05</ele>
        <time>2021-08-21T09:08:50Z</time>
      </trkpt>
      <trkpt lat="47.72075" lon="5.08276">
        <ele>455.05</ele>
        <time>2021-08-21T09:09:01Z</time>
      </trkpt>
      <trkpt lat="47.72065" lon="5.08252">
        <ele>455.16</ele>
        <time>2021-08-21T09:09:18Z</time>
      </trkpt>
      <trkpt lat="47.72057" lon="5.08233">
        <ele>454.57</ele>
        <time>2021-08-21T09:09:34Z</time>
      </trkpt>
      <trkpt lat="47.72047" lon="5.08214">
        <ele>454.36</ele>
        <time>2021-08-21T09:09:49Z</time>
      </trkpt>
      <trkpt lat="47.72043" lon="5.08211">
        <ele>453.9</ele>
        <time>2021-08-21T09:10:03Z</time>
      </trkpt>
      <trkpt lat="47.72036" lon="5.08215">
        <ele>452.36</ele>
        <time>2021-08-21T09:10:17Z</time>
      </trkpt>
      <trkpt lat="47.72023" lon="5.08221">
        <ele>451.32</ele>
        <time>2021-08-21T09:10:32Z</time>
      </trkpt>
      <trkpt lat="47.72016" lon="5.08226">
        <ele>450.34</ele>
        <time>2021-08-21T09:10:39Z</time>
      </trkpt>
      <trkpt lat="47.72005" lon="5.08229">
        <ele>449.87</ele>
        <time>2021-08-21T09:10:46Z</time>
      </trkpt>
      <trkpt lat="47.71998" lon="5.08228">
        <ele>449.21</ele>
        <time>2021-08-21T09:10:53Z</time>
      </trkpt>
      <trkpt lat="47.71985" lon="5.08233">
        <ele>447.72</ele>
        <time>2021-08-21T09:11:07Z</time>
      </trkpt>
      <trkpt lat="47.71981" lon="5.0824">
        <ele>447.46</ele>
        <time>2021-08-21T09:11:20Z</time>
      </trkpt>
      <trkpt lat="47.71988" lon="5.08239">
        <ele>448.13</ele>
        <time>2021-08-21T09:11:36Z</time>
      </trkpt>
      <trkpt lat="47.71993" lon="5.08237">
        <ele>448.58</ele>
        <time>2021-08-21T09:11:39Z</time>
      </trkpt>
      <trkpt lat="47.72002" lon="5.08231">
        <ele>450</ele>
        <time>2021-08-21T09:11:54Z</time>
      </trkpt>
      <trkpt lat="47.72017" lon="5.08227">
        <ele>450.93</ele>
        <time>2021-08-21T09:12:08Z</time>
      </trkpt>
      <trkpt lat="47.7202" lon="5.08226">
        <ele>451.25</ele>
        <time>2021-08-21T09:12:11Z</time>
      </trkpt>
      <trkpt lat="47.72028" lon="5.08209">
        <ele>452.76</ele>
        <time>2021-08-21T09:12:28Z</time>
      </trkpt>
      <trkpt lat="47.72021" lon="5.08194">
        <ele>452.71</ele>
        <time>2021-08-21T09:12:40Z</time>
      </trkpt>
      <trkpt lat="47.72016" lon="5.08174">
        <ele>453.13</ele>
        <time>2021-08-21T09:12:58Z</time>
      </trkpt>
      <trkpt lat="47.72016" lon="5.08168">
        <ele>453.32</ele>
        <time>2021-08-21T09:13:21Z</time>
      </trkpt>
      <trkpt lat="47.72023" lon="5.08187">
        <ele>452.67</ele>
        <time>2021-08-21T09:13:43Z</time>
      </trkpt>
      <trkpt lat="47.72024" lon="5.0819">
        <ele>452.45</ele>
        <time>2021-08-21T09:13:45Z</time>
      </trkpt>
      <trkpt lat="47.72029" lon="5.08203">
        <ele>452.6</ele>
        <time>2021-08-21T09:13:54Z</time>
      </trkpt>
      <trkpt lat="47.72035" lon="5.08216">
        <ele>452.69</ele>
        <time>2021-08-21T09:14:06Z</time>
      </trkpt>
      <trkpt lat="47.72044" lon="5.08215">
        <ele>454.02</ele>
        <time>2021-08-21T09:14:20Z</time>
      </trkpt>
      <trkpt lat="47.72051" lon="5.08212">
        <ele>454.54</ele>
        <time>2021-08-21T09:14:31Z</time>
      </trkpt>
      <trkpt lat="47.72051" lon="5.08212">
        <ele>453.68</ele>
        <time>2021-08-21T09:14:32Z</time>
      </trkpt>
      <trkpt lat="47.72051" lon="5.08209">
        <ele>455</ele>
        <time>2021-08-21T09:14:35Z</time>
      </trkpt>
      <trkpt lat="47.7205" lon="5.08208">
        <ele>455.38</ele>
        <time>2021-08-21T09:14:36Z</time>
      </trkpt>
      <trkpt lat="47.72046" lon="5.08195">
        <ele>455.06</ele>
        <time>2021-08-21T09:14:50Z</time>
      </trkpt>
      <trkpt lat="47.72039" lon="5.08184">
        <ele>455.01</ele>
        <time>2021-08-21T09:15:00Z</time>
      </trkpt>
      <trkpt lat="47.72038" lon="5.08173">
        <ele>454.98</ele>
        <time>2021-08-21T09:15:16Z</time>
      </trkpt>
      <trkpt lat="47.72033" lon="5.08163">
        <ele>455.35</ele>
        <time>2021-08-21T09:15:27Z</time>
      </trkpt>
      <trkpt lat="47.72022" lon="5.08145">
        <ele>455.78</ele>
        <time>2021-08-21T09:15:45Z</time>
      </trkpt>
      <trkpt lat="47.72015" lon="5.0813">
        <ele>455.91</ele>
        <time>2021-08-21T09:15:58Z</time>
      </trkpt>
      <trkpt lat="47.72009" lon="5.08114">
        <ele>456.38</ele>
        <time>2021-08-21T09:16:11Z</time>
      </trkpt>
      <trkpt lat="47.72002" lon="5.08094">
        <ele>457.14</ele>
        <time>2021-08-21T09:16:27Z</time>
      </trkpt>
      <trkpt lat="47.72007" lon="5.08082">
        <ele>458.31</ele>
        <time>2021-08-21T09:16:40Z</time>
      </trkpt>
      <trkpt lat="47.72019" lon="5.0807">
        <ele>459.17</ele>
        <time>2021-08-21T09:16:53Z</time>
      </trkpt>
      <trkpt lat="47.72024" lon="5.08068">
        <ele>459.25</ele>
        <time>2021-08-21T09:16:58Z</time>
      </trkpt>
      <trkpt lat="47.72023" lon="5.08067">
        <ele>459.35</ele>
        <time>2021-08-21T09:17:00Z</time>
      </trkpt>
      <trkpt lat="47.72021" lon="5.08067">
        <ele>459.25</ele>
        <time>2021-08-21T09:17:03Z</time>
      </trkpt>
      <trkpt lat="47.72015" lon="5.08069">
        <ele>458.69</ele>
        <time>2021-08-21T09:17:17Z</time>
      </trkpt>
      <trkpt lat="47.72014" lon="5.0807">
        <ele>458.69</ele>
        <time>2021-08-21T09:17:19Z</time>
      </trkpt>
      <trkpt lat="47.72002" lon="5.08079">
        <ele>458.1</ele>
        <time>2021-08-21T09:17:34Z</time>
      </trkpt>
      <trkpt lat="47.71995" lon="5.08085">
        <ele>457.38</ele>
        <time>2021-08-21T09:17:48Z</time>
      </trkpt>
      <trkpt lat="47.7199" lon="5.08082">
        <ele>457.08</ele>
        <time>2021-08-21T09:17:56Z</time>
      </trkpt>
      <trkpt lat="47.71988" lon="5.08078">
        <ele>456.93</ele>
        <time>2021-08-21T09:18:08Z</time>
      </trkpt>
      <trkpt lat="47.71986" lon="5.08074">
        <ele>457.73</ele>
        <time>2021-08-21T09:18:13Z</time>
      </trkpt>
      <trkpt lat="47.7198" lon="5.08064">
        <ele>457.99</ele>
        <time>2021-08-21T09:18:21Z</time>
      </trkpt>
      <trkpt lat="47.71974" lon="5.08058">
        <ele>458</ele>
        <time>2021-08-21T09:18:26Z</time>
      </trkpt>
      <trkpt lat="47.71969" lon="5.08053">
        <ele>457.98</ele>
        <time>2021-08-21T09:18:31Z</time>
      </trkpt>
      <trkpt lat="47.7196" lon="5.08046">
        <ele>458.48</ele>
        <time>2021-08-21T09:18:43Z</time>
      </trkpt>
      <trkpt lat="47.71948" lon="5.08032">
        <ele>458.5</ele>
        <time>2021-08-21T09:18:59Z</time>
      </trkpt>
      <trkpt lat="47.71943" lon="5.08027">
        <ele>458.73</ele>
        <time>2021-08-21T09:19:14Z</time>
      </trkpt>
      <trkpt lat="47.71935" lon="5.08011">
        <ele>458.86</ele>
        <time>2021-08-21T09:19:27Z</time>
      </trkpt>
      <trkpt lat="47.71925" lon="5.08">
        <ele>458.96</ele>
        <time>2021-08-21T09:19:37Z</time>
      </trkpt>
      <trkpt lat="47.7192" lon="5.07996">
        <ele>459.1</ele>
        <time>2021-08-21T09:19:43Z</time>
      </trkpt>
      <trkpt lat="47.71912" lon="5.07987">
        <ele>458.96</ele>
        <time>2021-08-21T09:19:57Z</time>
      </trkpt>
      <trkpt lat="47.71906" lon="5.07987">
        <ele>459.41</ele>
        <time>2021-08-21T09:20:50Z</time>
      </trkpt>
      <trkpt lat="47.71891" lon="5.07972">
        <ele>459.28</ele>
        <time>2021-08-21T09:21:07Z</time>
      </trkpt>
      <trkpt lat="47.71886" lon="5.07963">
        <ele>459.31</ele>
        <time>2021-08-21T09:21:16Z</time>
      </trkpt>
      <trkpt lat="47.71882" lon="5.07958">
        <ele>459.39</ele>
        <time>2021-08-21T09:21:20Z</time>
      </trkpt>
      <trkpt lat="47.71876" lon="5.0795">
        <ele>459.35</ele>
        <time>2021-08-21T09:21:28Z</time>
      </trkpt>
      <trkpt lat="47.71863" lon="5.07925">
        <ele>459.54</ele>
        <time>2021-08-21T09:21:47Z</time>
      </trkpt>
      <trkpt lat="47.71862" lon="5.07924">
        <ele>459.64</ele>
        <time>2021-08-21T09:21:48Z</time>
      </trkpt>
      <trkpt lat="47.71857" lon="5.07916">
        <ele>459.64</ele>
        <time>2021-08-21T09:21:55Z</time>
      </trkpt>
      <trkpt lat="47.71851" lon="5.07899">
        <ele>459.69</ele>
        <time>2021-08-21T09:22:07Z</time>
      </trkpt>
      <trkpt lat="47.71846" lon="5.07889">
        <ele>459.62</ele>
        <time>2021-08-21T09:22:14Z</time>
      </trkpt>
      <trkpt lat="47.71845" lon="5.07882">
        <ele>459.43</ele>
        <time>2021-08-21T09:22:19Z</time>
      </trkpt>
      <trkpt lat="47.71839" lon="5.07865">
        <ele>459.81</ele>
        <time>2021-08-21T09:22:33Z</time>
      </trkpt>
      <trkpt lat="47.71836" lon="5.0785">
        <ele>459.7</ele>
        <time>2021-08-21T09:22:43Z</time>
      </trkpt>
      <trkpt lat="47.71835" lon="5.07847">
        <ele>459.59</ele>
        <time>2021-08-21T09:22:45Z</time>
      </trkpt>
      <trkpt lat="47.71826" lon="5.07824">
        <ele>459.75</ele>
        <time>2021-08-21T09:23:02Z</time>
      </trkpt>
      <trkpt lat="47.7182" lon="5.07808">
        <ele>459.78</ele>
        <time>2021-08-21T09:23:13Z</time>
      </trkpt>
      <trkpt lat="47.71816" lon="5.07799">
        <ele>459.76</ele>
        <time>2021-08-21T09:23:30Z</time>
      </trkpt>
      <trkpt lat="47.71817" lon="5.07798">
        <ele>459.67</ele>
        <time>2021-08-21T09:23:37Z</time>
      </trkpt>
      <trkpt lat="47.71827" lon="5.07793">
        <ele>459.93</ele>
        <time>2021-08-21T09:23:51Z</time>
      </trkpt>
      <trkpt lat="47.71825" lon="5.07793">
        <ele>460.22</ele>
        <time>2021-08-21T09:24:02Z</time>
      </trkpt>
      <trkpt lat="47.71823" lon="5.07772">
        <ele>460.25</ele>
        <time>2021-08-21T09:24:18Z</time>
      </trkpt>
      <trkpt lat="47.71823" lon="5.0777">
        <ele>460.32</ele>
        <time>2021-08-21T09:24:19Z</time>
      </trkpt>
      <trkpt lat="47.71818" lon="5.07758">
        <ele>460.11</ele>
        <time>2021-08-21T09:24:29Z</time>
      </trkpt>
      <trkpt lat="47.71813" lon="5.07737">
        <ele>460.44</ele>
        <time>2021-08-21T09:24:44Z</time>
      </trkpt>
      <trkpt lat="47.71808" lon="5.07722">
        <ele>460.26</ele>
        <time>2021-08-21T09:24:56Z</time>
      </trkpt>
      <trkpt lat="47.71802" lon="5.07702">
        <ele>460.15</ele>
        <time>2021-08-21T09:25:11Z</time>
      </trkpt>
      <trkpt lat="47.71799" lon="5.07684">
        <ele>460.87</ele>
        <time>2021-08-21T09:25:27Z</time>
      </trkpt>
      <trkpt lat="47.71793" lon="5.07666">
        <ele>460.15</ele>
        <time>2021-08-21T09:25:42Z</time>
      </trkpt>
      <trkpt lat="47.7179" lon="5.07654">
        <ele>460.48</ele>
        <time>2021-08-21T09:25:55Z</time>
      </trkpt>
      <trkpt lat="47.71787" lon="5.0764">
        <ele>460.71</ele>
        <time>2021-08-21T09:26:09Z</time>
      </trkpt>
      <trkpt lat="47.71786" lon="5.0763">
        <ele>460.88</ele>
        <time>2021-08-21T09:26:23Z</time>
      </trkpt>
      <trkpt lat="47.71783" lon="5.07614">
        <ele>460.78</ele>
        <time>2021-08-21T09:26:42Z</time>
      </trkpt>
      <trkpt lat="47.71789" lon="5.07612">
        <ele>460.89</ele>
        <time>2021-08-21T09:26:47Z</time>
      </trkpt>
      <trkpt lat="47.71797" lon="5.07615">
        <ele>460.91</ele>
        <time>2021-08-21T09:26:54Z</time>
      </trkpt>
      <trkpt lat="47.71794" lon="5.07613">
        <ele>460.94</ele>
        <time>2021-08-21T09:27:09Z</time>
      </trkpt>
      <trkpt lat="47.71776" lon="5.07619">
        <ele>459.83</ele>
        <time>2021-08-21T09:27:23Z</time>
      </trkpt>
      <trkpt lat="47.71767" lon="5.07623">
        <ele>459.18</ele>
        <time>2021-08-21T09:27:31Z</time>
      </trkpt>
      <trkpt lat="47.71753" lon="5.07634">
        <ele>458.45</ele>
        <time>2021-08-21T09:27:47Z</time>
      </trkpt>
      <trkpt lat="47.71743" lon="5.07643">
        <ele>457.35</ele>
        <time>2021-08-21T09:28:04Z</time>
      </trkpt>
      <trkpt lat="47.7175" lon="5.07637">
        <ele>458.2</ele>
        <time>2021-08-21T09:28:13Z</time>
      </trkpt>
      <trkpt lat="47.71765" lon="5.07628">
        <ele>459.38</ele>
        <time>2021-08-21T09:28:27Z</time>
      </trkpt>
      <trkpt lat="47.71771" lon="5.07625">
        <ele>459.81</ele>
        <time>2021-08-21T09:28:33Z</time>
      </trkpt>
      <trkpt lat="47.71781" lon="5.07605">
        <ele>461.18</ele>
        <time>2021-08-21T09:28:52Z</time>
      </trkpt>
      <trkpt lat="47.71779" lon="5.07588">
        <ele>461.13</ele>
        <time>2021-08-21T09:29:07Z</time>
      </trkpt>
      <trkpt lat="47.71779" lon="5.07573">
        <ele>461.16</ele>
        <time>2021-08-21T09:29:19Z</time>
      </trkpt>
      <trkpt lat="47.71777" lon="5.07552">
        <ele>461.29</ele>
        <time>2021-08-21T09:29:34Z</time>
      </trkpt>
      <trkpt lat="47.71778" lon="5.07547">
        <ele>461.14</ele>
        <time>2021-08-21T09:29:39Z</time>
      </trkpt>
      <trkpt lat="47.71784" lon="5.07542">
        <ele>461.32</ele>
        <time>2021-08-21T09:29:44Z</time>
      </trkpt>
      <trkpt lat="47.7179" lon="5.07534">
        <ele>461.67</ele>
        <time>2021-08-21T09:29:52Z</time>
      </trkpt>
      <trkpt lat="47.71804" lon="5.07537">
        <ele>462.15</ele>
        <time>2021-08-21T09:30:06Z</time>
      </trkpt>
      <trkpt lat="47.71806" lon="5.07535">
        <ele>462.22</ele>
        <time>2021-08-21T09:30:18Z</time>
      </trkpt>
      <trkpt lat="47.71794" lon="5.0753">
        <ele>461.88</ele>
        <time>2021-08-21T09:30:30Z</time>
      </trkpt>
      <trkpt lat="47.7178" lon="5.07542">
        <ele>461.19</ele>
        <time>2021-08-21T09:30:44Z</time>
      </trkpt>
      <trkpt lat="47.7177" lon="5.07546">
        <ele>460.58</ele>
        <time>2021-08-21T09:30:56Z</time>
      </trkpt>
      <trkpt lat="47.71767" lon="5.07545">
        <ele>460.46</ele>
        <time>2021-08-21T09:30:59Z</time>
      </trkpt>
      <trkpt lat="47.7176" lon="5.07541">
        <ele>460.12</ele>
        <time>2021-08-21T09:31:17Z</time>
      </trkpt>
      <trkpt lat="47.71754" lon="5.07541">
        <ele>459.73</ele>
        <time>2021-08-21T09:31:45Z</time>
      </trkpt>
      <trkpt lat="47.71738" lon="5.07535">
        <ele>458.67</ele>
        <time>2021-08-21T09:32:01Z</time>
      </trkpt>
      <trkpt lat="47.71741" lon="5.07535">
        <ele>458.96</ele>
        <time>2021-08-21T09:32:34Z</time>
      </trkpt>
      <trkpt lat="47.71758" lon="5.07546">
        <ele>460.13</ele>
        <time>2021-08-21T09:32:50Z</time>
      </trkpt>
      <trkpt lat="47.71773" lon="5.0755">
        <ele>461.09</ele>
        <time>2021-08-21T09:33:04Z</time>
      </trkpt>
      <trkpt lat="47.71778" lon="5.07549">
        <ele>461.32</ele>
        <time>2021-08-21T09:33:20Z</time>
      </trkpt>
      <trkpt lat="47.71779" lon="5.07549">
        <ele>461.52</ele>
        <time>2021-08-21T09:34:59Z</time>
      </trkpt>
      <trkpt lat="47.71779" lon="5.07546">
        <ele>461.74</ele>
        <time>2021-08-21T09:35:29Z</time>
      </trkpt>
      <trkpt lat="47.71773" lon="5.07546">
        <ele>460.91</ele>
        <time>2021-08-21T09:35:50Z</time>
      </trkpt>
      <trkpt lat="47.7177" lon="5.07549">
        <ele>461.2</ele>
        <time>2021-08-21T09:36:24Z</time>
      </trkpt>
      <trkpt lat="47.71769" lon="5.07551">
        <ele>460.83</ele>
        <time>2021-08-21T09:37:02Z</time>
      </trkpt>
      <trkpt lat="47.71771" lon="5.0755">
        <ele>461.08</ele>
        <time>2021-08-21T09:37:04Z</time>
      </trkpt>
      <trkpt lat="47.71777" lon="5.07538">
        <ele>461.54</ele>
        <time>2021-08-21T09:37:17Z</time>
      </trkpt>
      <trkpt lat="47.71779" lon="5.07527">
        <ele>461.79</ele>
        <time>2021-08-21T09:37:24Z</time>
      </trkpt>
      <trkpt lat="47.71779" lon="5.07519">
        <ele>461.96</ele>
        <time>2021-08-21T09:37:28Z</time>
      </trkpt>
      <trkpt lat="47.71778" lon="5.0751">
        <ele>461.75</ele>
        <time>2021-08-21T09:37:35Z</time>
      </trkpt>
      <trkpt lat="47.71778" lon="5.07496">
        <ele>461.78</ele>
        <time>2021-08-21T09:37:43Z</time>
      </trkpt>
      <trkpt lat="47.71781" lon="5.07482">
        <ele>462.05</ele>
        <time>2021-08-21T09:37:52Z</time>
      </trkpt>
      <trkpt lat="47.71783" lon="5.07473">
        <ele>462.18</ele>
        <time>2021-08-21T09:37:58Z</time>
      </trkpt>
      <trkpt lat="47.71784" lon="5.07461">
        <ele>462.07</ele>
        <time>2021-08-21T09:38:05Z</time>
      </trkpt>
      <trkpt lat="47.71794" lon="5.07439">
        <ele>462.79</ele>
        <time>2021-08-21T09:38:21Z</time>
      </trkpt>
      <trkpt lat="47.71798" lon="5.0743">
        <ele>462.82</ele>
        <time>2021-08-21T09:38:31Z</time>
      </trkpt>
      <trkpt lat="47.71801" lon="5.07423">
        <ele>462.81</ele>
        <time>2021-08-21T09:38:35Z</time>
      </trkpt>
      <trkpt lat="47.71809" lon="5.07407">
        <ele>462.79</ele>
        <time>2021-08-21T09:38:48Z</time>
      </trkpt>
      <trkpt lat="47.71818" lon="5.07388">
        <ele>462.39</ele>
        <time>2021-08-21T09:39:01Z</time>
      </trkpt>
      <trkpt lat="47.71821" lon="5.0738">
        <ele>462.28</ele>
        <time>2021-08-21T09:39:07Z</time>
      </trkpt>
      <trkpt lat="47.71827" lon="5.07373">
        <ele>462.46</ele>
        <time>2021-08-21T09:39:24Z</time>
      </trkpt>
      <trkpt lat="47.71831" lon="5.07357">
        <ele>462.17</ele>
        <time>2021-08-21T09:40:03Z</time>
      </trkpt>
      <trkpt lat="47.71838" lon="5.07338">
        <ele>461.63</ele>
        <time>2021-08-21T09:40:19Z</time>
      </trkpt>
      <trkpt lat="47.71847" lon="5.07319">
        <ele>461.13</ele>
        <time>2021-08-21T09:40:33Z</time>
      </trkpt>
      <trkpt lat="47.71848" lon="5.07318">
        <ele>461.27</ele>
        <time>2021-08-21T09:40:34Z</time>
      </trkpt>
      <trkpt lat="47.71849" lon="5.07316">
        <ele>461.2</ele>
        <time>2021-08-21T09:40:36Z</time>
      </trkpt>
      <trkpt lat="47.71857" lon="5.07299">
        <ele>461.12</ele>
        <time>2021-08-21T09:40:50Z</time>
      </trkpt>
      <trkpt lat="47.71864" lon="5.07284">
        <ele>460.88</ele>
        <time>2021-08-21T09:41:02Z</time>
      </trkpt>
      <trkpt lat="47.71869" lon="5.07269">
        <ele>461.24</ele>
        <time>2021-08-21T09:41:14Z</time>
      </trkpt>
      <trkpt lat="47.7187" lon="5.07264">
        <ele>461.16</ele>
        <time>2021-08-21T09:41:17Z</time>
      </trkpt>
      <trkpt lat="47.71872" lon="5.07261">
        <ele>461.3</ele>
        <time>2021-08-21T09:41:19Z</time>
      </trkpt>
      <trkpt lat="47.71882" lon="5.07236">
        <ele>461.13</ele>
        <time>2021-08-21T09:41:35Z</time>
      </trkpt>
      <trkpt lat="47.71886" lon="5.07227">
        <ele>461</ele>
        <time>2021-08-21T09:41:42Z</time>
      </trkpt>
      <trkpt lat="47.71887" lon="5.07223">
        <ele>461.39</ele>
        <time>2021-08-21T09:41:45Z</time>
      </trkpt>
      <trkpt lat="47.71892" lon="5.07214">
        <ele>461.45</ele>
        <time>2021-08-21T09:41:52Z</time>
      </trkpt>
      <trkpt lat="47.71895" lon="5.07203">
        <ele>461.49</ele>
        <time>2021-08-21T09:41:58Z</time>
      </trkpt>
      <trkpt lat="47.71903" lon="5.07183">
        <ele>462.1</ele>
        <time>2021-08-21T09:42:13Z</time>
      </trkpt>
      <trkpt lat="47.71909" lon="5.07183">
        <ele>462.02</ele>
        <time>2021-08-21T09:42:26Z</time>
      </trkpt>
      <trkpt lat="47.71916" lon="5.07186">
        <ele>462.83</ele>
        <time>2021-08-21T09:42:34Z</time>
      </trkpt>
      <trkpt lat="47.7192" lon="5.07186">
        <ele>463.06</ele>
        <time>2021-08-21T09:42:37Z</time>
      </trkpt>
      <trkpt lat="47.71917" lon="5.07182">
        <ele>462.36</ele>
        <time>2021-08-21T09:42:51Z</time>
      </trkpt>
      <trkpt lat="47.71908" lon="5.07173">
        <ele>461.56</ele>
        <time>2021-08-21T09:43:07Z</time>
      </trkpt>
      <trkpt lat="47.71909" lon="5.07166">
        <ele>461.59</ele>
        <time>2021-08-21T09:43:13Z</time>
      </trkpt>
      <trkpt lat="47.71915" lon="5.07156">
        <ele>462.35</ele>
        <time>2021-08-21T09:43:24Z</time>
      </trkpt>
      <trkpt lat="47.71918" lon="5.07153">
        <ele>462.38</ele>
        <time>2021-08-21T09:43:28Z</time>
      </trkpt>
      <trkpt lat="47.71922" lon="5.07142">
        <ele>462.74</ele>
        <time>2021-08-21T09:43:36Z</time>
      </trkpt>
      <trkpt lat="47.71923" lon="5.07137">
        <ele>462.65</ele>
        <time>2021-08-21T09:43:39Z</time>
      </trkpt>
      <trkpt lat="47.71926" lon="5.07134">
        <ele>462.8</ele>
        <time>2021-08-21T09:43:42Z</time>
      </trkpt>
      <trkpt lat="47.71936" lon="5.07105">
        <ele>463.45</ele>
        <time>2021-08-21T09:44:01Z</time>
      </trkpt>
      <trkpt lat="47.71945" lon="5.07083">
        <ele>463.84</ele>
        <time>2021-08-21T09:44:16Z</time>
      </trkpt>
      <trkpt lat="47.71948" lon="5.07067">
        <ele>464.14</ele>
        <time>2021-08-21T09:44:26Z</time>
      </trkpt>
      <trkpt lat="47.71949" lon="5.07062">
        <ele>464.38</ele>
        <time>2021-08-21T09:44:29Z</time>
      </trkpt>
      <trkpt lat="47.71953" lon="5.07043">
        <ele>464.6</ele>
        <time>2021-08-21T09:44:43Z</time>
      </trkpt>
      <trkpt lat="47.71956" lon="5.07028">
        <ele>464.77</ele>
        <time>2021-08-21T09:44:54Z</time>
      </trkpt>
      <trkpt lat="47.71957" lon="5.07021">
        <ele>464.8</ele>
        <time>2021-08-21T09:44:58Z</time>
      </trkpt>
      <trkpt lat="47.71959" lon="5.07014">
        <ele>464.77</ele>
        <time>2021-08-21T09:45:02Z</time>
      </trkpt>
      <trkpt lat="47.7196" lon="5.07011">
        <ele>464.67</ele>
        <time>2021-08-21T09:45:04Z</time>
      </trkpt>
      <trkpt lat="47.71966" lon="5.0699">
        <ele>464.95</ele>
        <time>2021-08-21T09:45:18Z</time>
      </trkpt>
      <trkpt lat="47.71972" lon="5.06964">
        <ele>465.17</ele>
        <time>2021-08-21T09:45:33Z</time>
      </trkpt>
      <trkpt lat="47.71978" lon="5.06943">
        <ele>465.16</ele>
        <time>2021-08-21T09:45:49Z</time>
      </trkpt>
      <trkpt lat="47.71982" lon="5.06924">
        <ele>465.32</ele>
        <time>2021-08-21T09:46:02Z</time>
      </trkpt>
      <trkpt lat="47.71982" lon="5.06924">
        <ele>465.3</ele>
        <time>2021-08-21T09:46:03Z</time>
      </trkpt>
      <trkpt lat="47.71995" lon="5.06927">
        <ele>465.56</ele>
        <time>2021-08-21T09:46:17Z</time>
      </trkpt>
      <trkpt lat="47.71996" lon="5.06926">
        <ele>465.79</ele>
        <time>2021-08-21T09:46:22Z</time>
      </trkpt>
      <trkpt lat="47.71982" lon="5.06921">
        <ele>465.29</ele>
        <time>2021-08-21T09:46:36Z</time>
      </trkpt>
      <trkpt lat="47.71969" lon="5.06911">
        <ele>464.56</ele>
        <time>2021-08-21T09:46:50Z</time>
      </trkpt>
      <trkpt lat="47.71966" lon="5.06908">
        <ele>464.43</ele>
        <time>2021-08-21T09:46:59Z</time>
      </trkpt>
      <trkpt lat="47.71976" lon="5.06919">
        <ele>464.93</ele>
        <time>2021-08-21T09:47:11Z</time>
      </trkpt>
      <trkpt lat="47.71983" lon="5.06919">
        <ele>465.5</ele>
        <time>2021-08-21T09:47:17Z</time>
      </trkpt>
      <trkpt lat="47.71987" lon="5.069">
        <ele>465.4</ele>
        <time>2021-08-21T09:47:32Z</time>
      </trkpt>
      <trkpt lat="47.7199" lon="5.06888">
        <ele>465.54</ele>
        <time>2021-08-21T09:47:41Z</time>
      </trkpt>
      <trkpt lat="47.71991" lon="5.06878">
        <ele>465.62</ele>
        <time>2021-08-21T09:47:48Z</time>
      </trkpt>
      <trkpt lat="47.71992" lon="5.06874">
        <ele>465.5</ele>
        <time>2021-08-21T09:47:51Z</time>
      </trkpt>
      <trkpt lat="47.71995" lon="5.06859">
        <ele>465.41</ele>
        <time>2021-08-21T09:48:01Z</time>
      </trkpt>
      <trkpt lat="47.71997" lon="5.06853">
        <ele>465.44</ele>
        <time>2021-08-21T09:48:05Z</time>
      </trkpt>
      <trkpt lat="47.72" lon="5.06837">
        <ele>465.71</ele>
        <time>2021-08-21T09:48:15Z</time>
      </trkpt>
      <trkpt lat="47.72006" lon="5.06816">
        <ele>465.69</ele>
        <time>2021-08-21T09:48:29Z</time>
      </trkpt>
      <trkpt lat="47.72007" lon="5.06814">
        <ele>465.81</ele>
        <time>2021-08-21T09:48:32Z</time>
      </trkpt>
      <trkpt lat="47.72012" lon="5.06819">
        <ele>465.9</ele>
        <time>2021-08-21T09:48:37Z</time>
      </trkpt>
      <trkpt lat="47.72018" lon="5.0682">
        <ele>466.16</ele>
        <time>2021-08-21T09:48:45Z</time>
      </trkpt>
      <trkpt lat="47.72007" lon="5.06809">
        <ele>465.51</ele>
        <time>2021-08-21T09:48:58Z</time>
      </trkpt>
      <trkpt lat="47.72005" lon="5.06795">
        <ele>465.28</ele>
        <time>2021-08-21T09:49:09Z</time>
      </trkpt>
      <trkpt lat="47.72003" lon="5.06801">
        <ele>465.65</ele>
        <time>2021-08-21T09:49:22Z</time>
      </trkpt>
      <trkpt lat="47.7201" lon="5.06811">
        <ele>465.59</ele>
        <time>2021-08-21T09:49:34Z</time>
      </trkpt>
      <trkpt lat="47.72013" lon="5.06803">
        <ele>465.98</ele>
        <time>2021-08-21T09:49:40Z</time>
      </trkpt>
      <trkpt lat="47.7202" lon="5.06787">
        <ele>466.12</ele>
        <time>2021-08-21T09:49:53Z</time>
      </trkpt>
      <trkpt lat="47.72026" lon="5.06767">
        <ele>466.06</ele>
        <time>2021-08-21T09:50:09Z</time>
      </trkpt>
      <trkpt lat="47.72033" lon="5.06753">
        <ele>465.87</ele>
        <time>2021-08-21T09:50:21Z</time>
      </trkpt>
      <trkpt lat="47.7204" lon="5.06749">
        <ele>466.05</ele>
        <time>2021-08-21T09:50:38Z</time>
      </trkpt>
      <trkpt lat="47.72043" lon="5.06748">
        <ele>466.18</ele>
        <time>2021-08-21T09:51:05Z</time>
      </trkpt>
      <trkpt lat="47.72044" lon="5.06742">
        <ele>466.27</ele>
        <time>2021-08-21T09:51:08Z</time>
      </trkpt>
      <trkpt lat="47.72046" lon="5.06733">
        <ele>466.52</ele>
        <time>2021-08-21T09:51:15Z</time>
      </trkpt>
      <trkpt lat="47.7205" lon="5.06716">
        <ele>466.19</ele>
        <time>2021-08-21T09:51:29Z</time>
      </trkpt>
      <trkpt lat="47.72056" lon="5.067">
        <ele>466.27</ele>
        <time>2021-08-21T09:51:41Z</time>
      </trkpt>
      <trkpt lat="47.72063" lon="5.06689">
        <ele>466.3</ele>
        <time>2021-08-21T09:51:54Z</time>
      </trkpt>
      <trkpt lat="47.72062" lon="5.06689">
        <ele>466.28</ele>
        <time>2021-08-21T09:52:38Z</time>
      </trkpt>
      <trkpt lat="47.7205" lon="5.06683">
        <ele>465.2</ele>
        <time>2021-08-21T09:52:51Z</time>
      </trkpt>
      <trkpt lat="47.72045" lon="5.0668">
        <ele>465.11</ele>
        <time>2021-08-21T09:52:55Z</time>
      </trkpt>
      <trkpt lat="47.72045" lon="5.06682">
        <ele>465.26</ele>
        <time>2021-08-21T09:52:58Z</time>
      </trkpt>
      <trkpt lat="47.72059" lon="5.06692">
        <ele>466.55</ele>
        <time>2021-08-21T09:53:14Z</time>
      </trkpt>
      <trkpt lat="47.72072" lon="5.0667">
        <ele>466.63</ele>
        <time>2021-08-21T09:53:30Z</time>
      </trkpt>
      <trkpt lat="47.72082" lon="5.06649">
        <ele>466.69</ele>
        <time>2021-08-21T09:53:45Z</time>
      </trkpt>
      <trkpt lat="47.72086" lon="5.06635">
        <ele>466.53</ele>
        <time>2021-08-21T09:53:54Z</time>
      </trkpt>
      <trkpt lat="47.72088" lon="5.0663">
        <ele>466.66</ele>
        <time>2021-08-21T09:53:58Z</time>
      </trkpt>
      <trkpt lat="47.72091" lon="5.06622">
        <ele>466.53</ele>
        <time>2021-08-21T09:54:04Z</time>
      </trkpt>
      <trkpt lat="47.72093" lon="5.06616">
        <ele>466.58</ele>
        <time>2021-08-21T09:54:08Z</time>
      </trkpt>
      <trkpt lat="47.72096" lon="5.06607">
        <ele>466.02</ele>
        <time>2021-08-21T09:54:15Z</time>
      </trkpt>
      <trkpt lat="47.72102" lon="5.06594">
        <ele>465.87</ele>
        <time>2021-08-21T09:54:23Z</time>
      </trkpt>
      <trkpt lat="47.72105" lon="5.06586">
        <ele>465.62</ele>
        <time>2021-08-21T09:54:29Z</time>
      </trkpt>
      <trkpt lat="47.72115" lon="5.06561">
        <ele>465.46</ele>
        <time>2021-08-21T09:54:46Z</time>
      </trkpt>
      <trkpt lat="47.72117" lon="5.06557">
        <ele>465.34</ele>
        <time>2021-08-21T09:54:49Z</time>
      </trkpt>
      <trkpt lat="47.72121" lon="5.06532">
        <ele>465.23</ele>
        <time>2021-08-21T09:55:04Z</time>
      </trkpt>
      <trkpt lat="47.72122" lon="5.06527">
        <ele>464.63</ele>
        <time>2021-08-21T09:55:07Z</time>
      </trkpt>
      <trkpt lat="47.72126" lon="5.06507">
        <ele>464.4</ele>
        <time>2021-08-21T09:55:24Z</time>
      </trkpt>
      <trkpt lat="47.7213" lon="5.06484">
        <ele>464.87</ele>
        <time>2021-08-21T09:55:39Z</time>
      </trkpt>
      <trkpt lat="47.7213" lon="5.06483">
        <ele>464.79</ele>
        <time>2021-08-21T09:55:40Z</time>
      </trkpt>
      <trkpt lat="47.72131" lon="5.06476">
        <ele>464.75</ele>
        <time>2021-08-21T09:55:44Z</time>
      </trkpt>
      <trkpt lat="47.72131" lon="5.06463">
        <ele>464.64</ele>
        <time>2021-08-21T09:55:57Z</time>
      </trkpt>
      <trkpt lat="47.72134" lon="5.06462">
        <ele>465.27</ele>
        <time>2021-08-21T09:56:01Z</time>
      </trkpt>
      <trkpt lat="47.72146" lon="5.06462">
        <ele>467.51</ele>
        <time>2021-08-21T09:56:16Z</time>
      </trkpt>
      <trkpt lat="47.72155" lon="5.06458">
        <ele>469.9</ele>
        <time>2021-08-21T09:56:28Z</time>
      </trkpt>
      <trkpt lat="47.72153" lon="5.06456">
        <ele>468.19</ele>
        <time>2021-08-21T09:56:44Z</time>
      </trkpt>
      <trkpt lat="47.72151" lon="5.06455">
        <ele>467.4</ele>
        <time>2021-08-21T09:56:46Z</time>
      </trkpt>
      <trkpt lat="47.72146" lon="5.06457">
        <ele>466.26</ele>
        <time>2021-08-21T09:56:53Z</time>
      </trkpt>
      <trkpt lat="47.72129" lon="5.0646">
        <ele>464.66</ele>
        <time>2021-08-21T09:57:09Z</time>
      </trkpt>
      <trkpt lat="47.72119" lon="5.06462">
        <ele>463.89</ele>
        <time>2021-08-21T09:57:23Z</time>
      </trkpt>
      <trkpt lat="47.72107" lon="5.06472">
        <ele>462.55</ele>
        <time>2021-08-21T09:57:36Z</time>
      </trkpt>
      <trkpt lat="47.72098" lon="5.0648">
        <ele>461.98</ele>
        <time>2021-08-21T09:57:49Z</time>
      </trkpt>
      <trkpt lat="47.72101" lon="5.06478">
        <ele>462.36</ele>
        <time>2021-08-21T09:58:08Z</time>
      </trkpt>
      <trkpt lat="47.72105" lon="5.06477">
        <ele>462.65</ele>
        <time>2021-08-21T09:58:11Z</time>
      </trkpt>
      <trkpt lat="47.72115" lon="5.06466">
        <ele>464.02</ele>
        <time>2021-08-21T09:58:24Z</time>
      </trkpt>
      <trkpt lat="47.72124" lon="5.06463">
        <ele>464.53</ele>
        <time>2021-08-21T09:58:35Z</time>
      </trkpt>
      <trkpt lat="47.7213" lon="5.06454">
        <ele>465.32</ele>
        <time>2021-08-21T09:58:45Z</time>
      </trkpt>
      <trkpt lat="47.72124" lon="5.06426">
        <ele>465.5</ele>
        <time>2021-08-21T09:59:03Z</time>
      </trkpt>
      <trkpt lat="47.7212" lon="5.06408">
        <ele>465.38</ele>
        <time>2021-08-21T09:59:18Z</time>
      </trkpt>
      <trkpt lat="47.72117" lon="5.06401">
        <ele>465.67</ele>
        <time>2021-08-21T09:59:24Z</time>
      </trkpt>
      <trkpt lat="47.72118" lon="5.06393">
        <ele>466.22</ele>
        <time>2021-08-21T09:59:39Z</time>
      </trkpt>
      <trkpt lat="47.72114" lon="5.0638">
        <ele>466.74</ele>
        <time>2021-08-21T09:59:46Z</time>
      </trkpt>
      <trkpt lat="47.72109" lon="5.06367">
        <ele>467.02</ele>
        <time>2021-08-21T09:59:54Z</time>
      </trkpt>
      <trkpt lat="47.72105" lon="5.06359">
        <ele>467.39</ele>
        <time>2021-08-21T10:00:00Z</time>
      </trkpt>
      <trkpt lat="47.72104" lon="5.06353">
        <ele>467.7</ele>
        <time>2021-08-21T10:00:04Z</time>
      </trkpt>
      <trkpt lat="47.72099" lon="5.06339">
        <ele>467.9</ele>
        <time>2021-08-21T10:00:13Z</time>
      </trkpt>
      <trkpt lat="47.72098" lon="5.06336">
        <ele>467.8</ele>
        <time>2021-08-21T10:00:15Z</time>
      </trkpt>
      <trkpt lat="47.72093" lon="5.06331">
        <ele>466.97</ele>
        <time>2021-08-21T10:00:30Z</time>
      </trkpt>
      <trkpt lat="47.72091" lon="5.06323">
        <ele>468.47</ele>
        <time>2021-08-21T10:00:37Z</time>
      </trkpt>
      <trkpt lat="47.72088" lon="5.06313">
        <ele>468.35</ele>
        <time>2021-08-21T10:00:43Z</time>
      </trkpt>
      <trkpt lat="47.72084" lon="5.06295">
        <ele>468.52</ele>
        <time>2021-08-21T10:00:54Z</time>
      </trkpt>
      <trkpt lat="47.72075" lon="5.06275">
        <ele>469.42</ele>
        <time>2021-08-21T10:01:08Z</time>
      </trkpt>
      <trkpt lat="47.72073" lon="5.06265">
        <ele>469.56</ele>
        <time>2021-08-21T10:01:15Z</time>
      </trkpt>
      <trkpt lat="47.72066" lon="5.06245">
        <ele>469.84</ele>
        <time>2021-08-21T10:01:30Z</time>
      </trkpt>
      <trkpt lat="47.72065" lon="5.06241">
        <ele>469.91</ele>
        <time>2021-08-21T10:01:33Z</time>
      </trkpt>
      <trkpt lat="47.7206" lon="5.06224">
        <ele>469.11</ele>
        <time>2021-08-21T10:01:47Z</time>
      </trkpt>
      <trkpt lat="47.72058" lon="5.06221">
        <ele>470.12</ele>
        <time>2021-08-21T10:02:09Z</time>
      </trkpt>
      <trkpt lat="47.72052" lon="5.06204">
        <ele>470.03</ele>
        <time>2021-08-21T10:02:18Z</time>
      </trkpt>
      <trkpt lat="47.72047" lon="5.0618">
        <ele>470.06</ele>
        <time>2021-08-21T10:02:35Z</time>
      </trkpt>
      <trkpt lat="47.72037" lon="5.06159">
        <ele>470.45</ele>
        <time>2021-08-21T10:02:51Z</time>
      </trkpt>
      <trkpt lat="47.72035" lon="5.06146">
        <ele>470.46</ele>
        <time>2021-08-21T10:03:00Z</time>
      </trkpt>
      <trkpt lat="47.7205" lon="5.06137">
        <ele>471.21</ele>
        <time>2021-08-21T10:03:16Z</time>
      </trkpt>
      <trkpt lat="47.72061" lon="5.06136">
        <ele>471.36</ele>
        <time>2021-08-21T10:03:26Z</time>
      </trkpt>
      <trkpt lat="47.72067" lon="5.06135">
        <ele>471.24</ele>
        <time>2021-08-21T10:03:31Z</time>
      </trkpt>
      <trkpt lat="47.7208" lon="5.06136">
        <ele>471.38</ele>
        <time>2021-08-21T10:03:41Z</time>
      </trkpt>
      <trkpt lat="47.72084" lon="5.06139">
        <ele>471.44</ele>
        <time>2021-08-21T10:03:45Z</time>
      </trkpt>
      <trkpt lat="47.72101" lon="5.06123">
        <ele>471.99</ele>
        <time>2021-08-21T10:04:03Z</time>
      </trkpt>
      <trkpt lat="47.72103" lon="5.06117">
        <ele>472.22</ele>
        <time>2021-08-21T10:04:21Z</time>
      </trkpt>
      <trkpt lat="47.72103" lon="5.06115">
        <ele>472.4</ele>
        <time>2021-08-21T10:05:55Z</time>
      </trkpt>
      <trkpt lat="47.72101" lon="5.06121">
        <ele>471.95</ele>
        <time>2021-08-21T10:06:22Z</time>
      </trkpt>
      <trkpt lat="47.72096" lon="5.0613">
        <ele>471.86</ele>
        <time>2021-08-21T10:06:31Z</time>
      </trkpt>
      <trkpt lat="47.72089" lon="5.0614">
        <ele>471.29</ele>
        <time>2021-08-21T10:06:44Z</time>
      </trkpt>
      <trkpt lat="47.72089" lon="5.0616">
        <ele>471.26</ele>
        <time>2021-08-21T10:06:56Z</time>
      </trkpt>
      <trkpt lat="47.721" lon="5.06186">
        <ele>471.5</ele>
        <time>2021-08-21T10:07:13Z</time>
      </trkpt>
      <trkpt lat="47.72101" lon="5.0619">
        <ele>471.58</ele>
        <time>2021-08-21T10:07:16Z</time>
      </trkpt>
      <trkpt lat="47.72109" lon="5.06217">
        <ele>471.78</ele>
        <time>2021-08-21T10:07:32Z</time>
      </trkpt>
      <trkpt lat="47.72115" lon="5.06232">
        <ele>471.73</ele>
        <time>2021-08-21T10:07:41Z</time>
      </trkpt>
      <trkpt lat="47.72122" lon="5.06259">
        <ele>471.75</ele>
        <time>2021-08-21T10:07:56Z</time>
      </trkpt>
      <trkpt lat="47.72128" lon="5.06287">
        <ele>472.03</ele>
        <time>2021-08-21T10:08:11Z</time>
      </trkpt>
      <trkpt lat="47.72135" lon="5.06319">
        <ele>471.85</ele>
        <time>2021-08-21T10:08:28Z</time>
      </trkpt>
      <trkpt lat="47.72139" lon="5.06345">
        <ele>472</ele>
        <time>2021-08-21T10:08:42Z</time>
      </trkpt>
      <trkpt lat="47.72146" lon="5.06381">
        <ele>471.93</ele>
        <time>2021-08-21T10:09:01Z</time>
      </trkpt>
      <trkpt lat="47.7215" lon="5.06403">
        <ele>472.33</ele>
        <time>2021-08-21T10:09:13Z</time>
      </trkpt>
      <trkpt lat="47.72151" lon="5.06423">
        <ele>471.49</ele>
        <time>2021-08-21T10:09:24Z</time>
      </trkpt>
      <trkpt lat="47.72153" lon="5.06458">
        <ele>471.59</ele>
        <time>2021-08-21T10:09:42Z</time>
      </trkpt>
      <trkpt lat="47.72155" lon="5.0649">
        <ele>471.62</ele>
        <time>2021-08-21T10:10:00Z</time>
      </trkpt>
      <trkpt lat="47.72157" lon="5.06514">
        <ele>471.56</ele>
        <time>2021-08-21T10:10:13Z</time>
      </trkpt>
      <trkpt lat="47.72157" lon="5.06542">
        <ele>471.36</ele>
        <time>2021-08-21T10:10:28Z</time>
      </trkpt>
      <trkpt lat="47.72157" lon="5.06574">
        <ele>471.35</ele>
        <time>2021-08-21T10:10:44Z</time>
      </trkpt>
      <trkpt lat="47.72157" lon="5.06604">
        <ele>471.44</ele>
        <time>2021-08-21T10:10:59Z</time>
      </trkpt>
      <trkpt lat="47.72155" lon="5.06632">
        <ele>471.27</ele>
        <time>2021-08-21T10:11:13Z</time>
      </trkpt>
      <trkpt lat="47.72155" lon="5.06661">
        <ele>471.33</ele>
        <time>2021-08-21T10:11:27Z</time>
      </trkpt>
      <trkpt lat="47.72151" lon="5.06687">
        <ele>471.21</ele>
        <time>2021-08-21T10:11:41Z</time>
      </trkpt>
      <trkpt lat="47.72146" lon="5.0672">
        <ele>471.03</ele>
        <time>2021-08-21T10:11:58Z</time>
      </trkpt>
      <trkpt lat="47.7214" lon="5.06752">
        <ele>471.01</ele>
        <time>2021-08-21T10:12:14Z</time>
      </trkpt>
      <trkpt lat="47.72137" lon="5.06782">
        <ele>471.1</ele>
        <time>2021-08-21T10:12:29Z</time>
      </trkpt>
      <trkpt lat="47.72129" lon="5.06812">
        <ele>470.98</ele>
        <time>2021-08-21T10:12:45Z</time>
      </trkpt>
      <trkpt lat="47.72122" lon="5.06839">
        <ele>470.92</ele>
        <time>2021-08-21T10:13:00Z</time>
      </trkpt>
      <trkpt lat="47.72116" lon="5.06859">
        <ele>471.06</ele>
        <time>2021-08-21T10:13:14Z</time>
      </trkpt>
      <trkpt lat="47.72112" lon="5.06857">
        <ele>470.96</ele>
        <time>2021-08-21T10:13:18Z</time>
      </trkpt>
      <trkpt lat="47.72097" lon="5.06848">
        <ele>471.69</ele>
        <time>2021-08-21T10:13:35Z</time>
      </trkpt>
      <trkpt lat="47.72099" lon="5.06851">
        <ele>471.71</ele>
        <time>2021-08-21T10:13:38Z</time>
      </trkpt>
      <trkpt lat="47.72105" lon="5.06859">
        <ele>471.32</ele>
        <time>2021-08-21T10:13:44Z</time>
      </trkpt>
      <trkpt lat="47.72108" lon="5.06861">
        <ele>471</ele>
        <time>2021-08-21T10:13:47Z</time>
      </trkpt>
      <trkpt lat="47.72114" lon="5.06864">
        <ele>471.01</ele>
        <time>2021-08-21T10:13:51Z</time>
      </trkpt>
      <trkpt lat="47.7213" lon="5.06864">
        <ele>471.61</ele>
        <time>2021-08-21T10:14:06Z</time>
      </trkpt>
      <trkpt lat="47.72144" lon="5.06861">
        <ele>472.48</ele>
        <time>2021-08-21T10:14:19Z</time>
      </trkpt>
      <trkpt lat="47.72146" lon="5.06861">
        <ele>472.76</ele>
        <time>2021-08-21T10:14:21Z</time>
      </trkpt>
      <trkpt lat="47.72151" lon="5.06858">
        <ele>473.16</ele>
        <time>2021-08-21T10:14:26Z</time>
      </trkpt>
      <trkpt lat="47.72161" lon="5.06873">
        <ele>474.21</ele>
        <time>2021-08-21T10:14:40Z</time>
      </trkpt>
      <trkpt lat="47.72165" lon="5.06881">
        <ele>474.31</ele>
        <time>2021-08-21T10:14:47Z</time>
      </trkpt>
      <trkpt lat="47.72166" lon="5.06905">
        <ele>474.52</ele>
        <time>2021-08-21T10:15:02Z</time>
      </trkpt>
      <trkpt lat="47.72165" lon="5.06911">
        <ele>474.44</ele>
        <time>2021-08-21T10:15:06Z</time>
      </trkpt>
      <trkpt lat="47.72167" lon="5.06928">
        <ele>474.43</ele>
        <time>2021-08-21T10:15:16Z</time>
      </trkpt>
      <trkpt lat="47.72167" lon="5.06953">
        <ele>474.42</ele>
        <time>2021-08-21T10:15:31Z</time>
      </trkpt>
      <trkpt lat="47.72167" lon="5.06959">
        <ele>474.47</ele>
        <time>2021-08-21T10:15:35Z</time>
      </trkpt>
      <trkpt lat="47.72168" lon="5.06978">
        <ele>474.44</ele>
        <time>2021-08-21T10:15:46Z</time>
      </trkpt>
      <trkpt lat="47.72168" lon="5.06989">
        <ele>474.26</ele>
        <time>2021-08-21T10:15:53Z</time>
      </trkpt>
      <trkpt lat="47.72169" lon="5.07011">
        <ele>473.7</ele>
        <time>2021-08-21T10:16:07Z</time>
      </trkpt>
      <trkpt lat="47.72169" lon="5.07022">
        <ele>473.75</ele>
        <time>2021-08-21T10:16:14Z</time>
      </trkpt>
      <trkpt lat="47.72169" lon="5.07028">
        <ele>473.59</ele>
        <time>2021-08-21T10:16:18Z</time>
      </trkpt>
      <trkpt lat="47.72171" lon="5.07033">
        <ele>473.6</ele>
        <time>2021-08-21T10:16:22Z</time>
      </trkpt>
      <trkpt lat="47.72175" lon="5.07036">
        <ele>473.64</ele>
        <time>2021-08-21T10:16:26Z</time>
      </trkpt>
      <trkpt lat="47.72191" lon="5.07047">
        <ele>473.88</ele>
        <time>2021-08-21T10:16:42Z</time>
      </trkpt>
      <trkpt lat="47.72175" lon="5.07032">
        <ele>474.03</ele>
        <time>2021-08-21T10:16:58Z</time>
      </trkpt>
      <trkpt lat="47.72172" lon="5.07033">
        <ele>473.68</ele>
        <time>2021-08-21T10:17:02Z</time>
      </trkpt>
      <trkpt lat="47.72172" lon="5.07038">
        <ele>473.68</ele>
        <time>2021-08-21T10:17:05Z</time>
      </trkpt>
      <trkpt lat="47.7217" lon="5.0705">
        <ele>473.21</ele>
        <time>2021-08-21T10:17:15Z</time>
      </trkpt>
      <trkpt lat="47.72171" lon="5.07072">
        <ele>472.65</ele>
        <time>2021-08-21T10:17:30Z</time>
      </trkpt>
      <trkpt lat="47.7217" lon="5.07081">
        <ele>472.1</ele>
        <time>2021-08-21T10:17:44Z</time>
      </trkpt>
      <trkpt lat="47.72171" lon="5.07092">
        <ele>472.38</ele>
        <time>2021-08-21T10:17:57Z</time>
      </trkpt>
      <trkpt lat="47.7217" lon="5.07112">
        <ele>471.8</ele>
        <time>2021-08-21T10:18:12Z</time>
      </trkpt>
      <trkpt lat="47.7217" lon="5.07116">
        <ele>471.59</ele>
        <time>2021-08-21T10:18:15Z</time>
      </trkpt>
      <trkpt lat="47.72171" lon="5.07142">
        <ele>470.68</ele>
        <time>2021-08-21T10:18:32Z</time>
      </trkpt>
      <trkpt lat="47.72172" lon="5.0716">
        <ele>469.95</ele>
        <time>2021-08-21T10:18:44Z</time>
      </trkpt>
      <trkpt lat="47.72171" lon="5.07185">
        <ele>469.48</ele>
        <time>2021-08-21T10:19:01Z</time>
      </trkpt>
      <trkpt lat="47.72173" lon="5.07207">
        <ele>468.97</ele>
        <time>2021-08-21T10:19:16Z</time>
      </trkpt>
      <trkpt lat="47.72173" lon="5.07228">
        <ele>468.77</ele>
        <time>2021-08-21T10:19:30Z</time>
      </trkpt>
      <trkpt lat="47.72173" lon="5.07229">
        <ele>468.66</ele>
        <time>2021-08-21T10:19:31Z</time>
      </trkpt>
      <trkpt lat="47.72173" lon="5.07236">
        <ele>468.62</ele>
        <time>2021-08-21T10:19:35Z</time>
      </trkpt>
      <trkpt lat="47.72175" lon="5.07251">
        <ele>468.53</ele>
        <time>2021-08-21T10:19:45Z</time>
      </trkpt>
      <trkpt lat="47.72175" lon="5.0727">
        <ele>468.61</ele>
        <time>2021-08-21T10:19:59Z</time>
      </trkpt>
      <trkpt lat="47.72175" lon="5.07279">
        <ele>468.89</ele>
        <time>2021-08-21T10:20:13Z</time>
      </trkpt>
      <trkpt lat="47.72177" lon="5.07311">
        <ele>468.35</ele>
        <time>2021-08-21T10:20:31Z</time>
      </trkpt>
      <trkpt lat="47.72177" lon="5.07334">
        <ele>467.71</ele>
        <time>2021-08-21T10:20:45Z</time>
      </trkpt>
      <trkpt lat="47.72177" lon="5.07355">
        <ele>467.38</ele>
        <time>2021-08-21T10:20:56Z</time>
      </trkpt>
      <trkpt lat="47.72178" lon="5.07378">
        <ele>466.9</ele>
        <time>2021-08-21T10:21:10Z</time>
      </trkpt>
      <trkpt lat="47.72179" lon="5.07386">
        <ele>466.99</ele>
        <time>2021-08-21T10:21:15Z</time>
      </trkpt>
      <trkpt lat="47.72179" lon="5.07397">
        <ele>466.66</ele>
        <time>2021-08-21T10:21:22Z</time>
      </trkpt>
      <trkpt lat="47.72181" lon="5.07406">
        <ele>466.36</ele>
        <time>2021-08-21T10:21:27Z</time>
      </trkpt>
      <trkpt lat="47.72179" lon="5.07439">
        <ele>465.61</ele>
        <time>2021-08-21T10:21:45Z</time>
      </trkpt>
      <trkpt lat="47.72179" lon="5.07441">
        <ele>465.45</ele>
        <time>2021-08-21T10:21:47Z</time>
      </trkpt>
      <trkpt lat="47.72181" lon="5.07451">
        <ele>465.23</ele>
        <time>2021-08-21T10:22:02Z</time>
      </trkpt>
      <trkpt lat="47.72174" lon="5.07439">
        <ele>465.01</ele>
        <time>2021-08-21T10:22:18Z</time>
      </trkpt>
      <trkpt lat="47.72159" lon="5.07438">
        <ele>465.04</ele>
        <time>2021-08-21T10:22:32Z</time>
      </trkpt>
      <trkpt lat="47.72158" lon="5.07438">
        <ele>464.8</ele>
        <time>2021-08-21T10:22:33Z</time>
      </trkpt>
      <trkpt lat="47.72148" lon="5.07438">
        <ele>464.17</ele>
        <time>2021-08-21T10:22:46Z</time>
      </trkpt>
      <trkpt lat="47.72134" lon="5.0743">
        <ele>463.18</ele>
        <time>2021-08-21T10:23:01Z</time>
      </trkpt>
      <trkpt lat="47.72128" lon="5.07433">
        <ele>463.11</ele>
        <time>2021-08-21T10:23:16Z</time>
      </trkpt>
      <trkpt lat="47.72127" lon="5.07435">
        <ele>463.36</ele>
        <time>2021-08-21T10:23:54Z</time>
      </trkpt>
      <trkpt lat="47.7213" lon="5.07436">
        <ele>463.34</ele>
        <time>2021-08-21T10:23:56Z</time>
      </trkpt>
      <trkpt lat="47.72135" lon="5.07438">
        <ele>463.43</ele>
        <time>2021-08-21T10:24:16Z</time>
      </trkpt>
      <trkpt lat="47.72144" lon="5.0744">
        <ele>464.18</ele>
        <time>2021-08-21T10:24:44Z</time>
      </trkpt>
      <trkpt lat="47.72149" lon="5.07443">
        <ele>464.81</ele>
        <time>2021-08-21T10:24:50Z</time>
      </trkpt>
      <trkpt lat="47.72161" lon="5.07445">
        <ele>465.48</ele>
        <time>2021-08-21T10:25:02Z</time>
      </trkpt>
      <trkpt lat="47.72169" lon="5.07444">
        <ele>465.53</ele>
        <time>2021-08-21T10:25:10Z</time>
      </trkpt>
      <trkpt lat="47.72176" lon="5.07448">
        <ele>465.42</ele>
        <time>2021-08-21T10:25:17Z</time>
      </trkpt>
      <trkpt lat="47.72179" lon="5.07454">
        <ele>465.1</ele>
        <time>2021-08-21T10:25:23Z</time>
      </trkpt>
      <trkpt lat="47.72181" lon="5.07476">
        <ele>464.27</ele>
        <time>2021-08-21T10:25:38Z</time>
      </trkpt>
      <trkpt lat="47.72182" lon="5.07488">
        <ele>463.69</ele>
        <time>2021-08-21T10:25:46Z</time>
      </trkpt>
      <trkpt lat="47.72181" lon="5.07501">
        <ele>463.23</ele>
        <time>2021-08-21T10:25:55Z</time>
      </trkpt>
      <trkpt lat="47.72182" lon="5.07519">
        <ele>462.51</ele>
        <time>2021-08-21T10:26:08Z</time>
      </trkpt>
      <trkpt lat="47.72183" lon="5.07528">
        <ele>462</ele>
        <time>2021-08-21T10:26:14Z</time>
      </trkpt>
      <trkpt lat="47.72184" lon="5.07542">
        <ele>460.71</ele>
        <time>2021-08-21T10:26:24Z</time>
      </trkpt>
      <trkpt lat="47.72183" lon="5.07558">
        <ele>459.77</ele>
        <time>2021-08-21T10:26:37Z</time>
      </trkpt>
      <trkpt lat="47.72182" lon="5.07578">
        <ele>458.43</ele>
        <time>2021-08-21T10:26:52Z</time>
      </trkpt>
      <trkpt lat="47.72184" lon="5.07598">
        <ele>457.51</ele>
        <time>2021-08-21T10:27:08Z</time>
      </trkpt>
      <trkpt lat="47.72199" lon="5.07605">
        <ele>457.03</ele>
        <time>2021-08-21T10:27:23Z</time>
      </trkpt>
      <trkpt lat="47.72209" lon="5.07609">
        <ele>456.82</ele>
        <time>2021-08-21T10:27:38Z</time>
      </trkpt>
      <trkpt lat="47.72223" lon="5.07611">
        <ele>456.1</ele>
        <time>2021-08-21T10:27:51Z</time>
      </trkpt>
      <trkpt lat="47.72227" lon="5.0762">
        <ele>455.03</ele>
        <time>2021-08-21T10:28:03Z</time>
      </trkpt>
      <trkpt lat="47.7223" lon="5.07634">
        <ele>454.59</ele>
        <time>2021-08-21T10:28:18Z</time>
      </trkpt>
      <trkpt lat="47.72231" lon="5.07635">
        <ele>453.75</ele>
        <time>2021-08-21T10:28:23Z</time>
      </trkpt>
      <trkpt lat="47.72232" lon="5.07646">
        <ele>453.5</ele>
        <time>2021-08-21T10:28:31Z</time>
      </trkpt>
      <trkpt lat="47.72236" lon="5.0767">
        <ele>452.26</ele>
        <time>2021-08-21T10:28:46Z</time>
      </trkpt>
      <trkpt lat="47.72241" lon="5.07692">
        <ele>451.52</ele>
        <time>2021-08-21T10:29:00Z</time>
      </trkpt>
      <trkpt lat="47.72242" lon="5.07701">
        <ele>450.96</ele>
        <time>2021-08-21T10:29:11Z</time>
      </trkpt>
      <trkpt lat="47.72245" lon="5.07719">
        <ele>449.76</ele>
        <time>2021-08-21T10:29:25Z</time>
      </trkpt>
      <trkpt lat="47.72248" lon="5.07733">
        <ele>449.06</ele>
        <time>2021-08-21T10:29:35Z</time>
      </trkpt>
      <trkpt lat="47.72249" lon="5.07736">
        <ele>448.89</ele>
        <time>2021-08-21T10:29:37Z</time>
      </trkpt>
      <trkpt lat="47.72251" lon="5.07751">
        <ele>447.76</ele>
        <time>2021-08-21T10:29:48Z</time>
      </trkpt>
      <trkpt lat="47.72255" lon="5.07769">
        <ele>447.61</ele>
        <time>2021-08-21T10:30:03Z</time>
      </trkpt>
      <trkpt lat="47.72256" lon="5.07778">
        <ele>447.43</ele>
        <time>2021-08-21T10:30:10Z</time>
      </trkpt>
      <trkpt lat="47.72258" lon="5.07785">
        <ele>447.45</ele>
        <time>2021-08-21T10:30:15Z</time>
      </trkpt>
      <trkpt lat="47.72262" lon="5.07808">
        <ele>448.39</ele>
        <time>2021-08-21T10:30:30Z</time>
      </trkpt>
      <trkpt lat="47.72262" lon="5.07811">
        <ele>448.38</ele>
        <time>2021-08-21T10:30:32Z</time>
      </trkpt>
      <trkpt lat="47.72264" lon="5.0782">
        <ele>448.55</ele>
        <time>2021-08-21T10:30:47Z</time>
      </trkpt>
      <trkpt lat="47.72264" lon="5.07825">
        <ele>448.43</ele>
        <time>2021-08-21T10:31:25Z</time>
      </trkpt>
      <trkpt lat="47.72268" lon="5.07841">
        <ele>448.84</ele>
        <time>2021-08-21T10:31:40Z</time>
      </trkpt>
      <trkpt lat="47.72268" lon="5.07844">
        <ele>448.57</ele>
        <time>2021-08-21T10:31:42Z</time>
      </trkpt>
      <trkpt lat="47.7227" lon="5.07852">
        <ele>448.8</ele>
        <time>2021-08-21T10:31:48Z</time>
      </trkpt>
      <trkpt lat="47.7227" lon="5.07859">
        <ele>448.7</ele>
        <time>2021-08-21T10:31:52Z</time>
      </trkpt>
      <trkpt lat="47.72272" lon="5.07869">
        <ele>449.11</ele>
        <time>2021-08-21T10:31:58Z</time>
      </trkpt>
      <trkpt lat="47.72276" lon="5.07891">
        <ele>449.69</ele>
        <time>2021-08-21T10:32:13Z</time>
      </trkpt>
      <trkpt lat="47.72281" lon="5.07909">
        <ele>449.79</ele>
        <time>2021-08-21T10:32:25Z</time>
      </trkpt>
      <trkpt lat="47.72283" lon="5.07927">
        <ele>450.48</ele>
        <time>2021-08-21T10:32:39Z</time>
      </trkpt>
      <trkpt lat="47.72287" lon="5.07947">
        <ele>450.64</ele>
        <time>2021-08-21T10:32:54Z</time>
      </trkpt>
      <trkpt lat="47.72289" lon="5.07957">
        <ele>451.54</ele>
        <time>2021-08-21T10:33:05Z</time>
      </trkpt>
      <trkpt lat="47.72291" lon="5.07964">
        <ele>451.54</ele>
        <time>2021-08-21T10:33:12Z</time>
      </trkpt>
      <trkpt lat="47.72294" lon="5.07989">
        <ele>452.39</ele>
        <time>2021-08-21T10:33:28Z</time>
      </trkpt>
      <trkpt lat="47.72298" lon="5.08011">
        <ele>452.52</ele>
        <time>2021-08-21T10:33:45Z</time>
      </trkpt>
      <trkpt lat="47.72301" lon="5.08029">
        <ele>451.44</ele>
        <time>2021-08-21T10:33:59Z</time>
      </trkpt>
      <trkpt lat="47.72303" lon="5.08046">
        <ele>452.4</ele>
        <time>2021-08-21T10:34:11Z</time>
      </trkpt>
      <trkpt lat="47.72308" lon="5.08054">
        <ele>452.78</ele>
        <time>2021-08-21T10:34:25Z</time>
      </trkpt>
      <trkpt lat="47.72313" lon="5.08064">
        <ele>454.03</ele>
        <time>2021-08-21T10:34:40Z</time>
      </trkpt>
      <trkpt lat="47.72313" lon="5.08065">
        <ele>454.01</ele>
        <time>2021-08-21T10:34:42Z</time>
      </trkpt>
      <trkpt lat="47.72315" lon="5.08075">
        <ele>454.73</ele>
        <time>2021-08-21T10:34:54Z</time>
      </trkpt>
      <trkpt lat="47.72319" lon="5.08087">
        <ele>455.35</ele>
        <time>2021-08-21T10:35:09Z</time>
      </trkpt>
      <trkpt lat="47.72316" lon="5.08098">
        <ele>455.74</ele>
        <time>2021-08-21T10:35:22Z</time>
      </trkpt>
      <trkpt lat="47.72316" lon="5.08102">
        <ele>456.09</ele>
        <time>2021-08-21T10:35:25Z</time>
      </trkpt>
      <trkpt lat="47.72316" lon="5.08119">
        <ele>456.78</ele>
        <time>2021-08-21T10:35:38Z</time>
      </trkpt>
      <trkpt lat="47.72318" lon="5.08125">
        <ele>456.92</ele>
        <time>2021-08-21T10:35:42Z</time>
      </trkpt>
      <trkpt lat="47.72313" lon="5.08132">
        <ele>457.42</ele>
        <time>2021-08-21T10:35:57Z</time>
      </trkpt>
      <trkpt lat="47.7231" lon="5.08132">
        <ele>457.36</ele>
        <time>2021-08-21T10:36:01Z</time>
      </trkpt>
      <trkpt lat="47.72305" lon="5.08131">
        <ele>456.86</ele>
        <time>2021-08-21T10:36:08Z</time>
      </trkpt>
      <trkpt lat="47.72294" lon="5.0813">
        <ele>456.85</ele>
        <time>2021-08-21T10:36:21Z</time>
      </trkpt>
      <trkpt lat="47.72294" lon="5.08128">
        <ele>456.76</ele>
        <time>2021-08-21T10:36:34Z</time>
      </trkpt>
      <trkpt lat="47.72298" lon="5.08129">
        <ele>456.58</ele>
        <time>2021-08-21T10:36:38Z</time>
      </trkpt>
      <trkpt lat="47.72312" lon="5.08131">
        <ele>456.8</ele>
        <time>2021-08-21T10:36:51Z</time>
      </trkpt>
      <trkpt lat="47.72317" lon="5.08133">
        <ele>456.9</ele>
        <time>2021-08-21T10:36:56Z</time>
      </trkpt>
      <trkpt lat="47.72323" lon="5.0815">
        <ele>457.87</ele>
        <time>2021-08-21T10:37:11Z</time>
      </trkpt>
      <trkpt lat="47.72328" lon="5.08164">
        <ele>458.69</ele>
        <time>2021-08-21T10:37:23Z</time>
      </trkpt>
      <trkpt lat="47.72329" lon="5.0818">
        <ele>459.32</ele>
        <time>2021-08-21T10:37:35Z</time>
      </trkpt>
      <trkpt lat="47.72332" lon="5.08196">
        <ele>460.49</ele>
        <time>2021-08-21T10:37:46Z</time>
      </trkpt>
      <trkpt lat="47.72332" lon="5.08203">
        <ele>460.66</ele>
        <time>2021-08-21T10:37:52Z</time>
      </trkpt>
      <trkpt lat="47.72337" lon="5.08217">
        <ele>461.52</ele>
        <time>2021-08-21T10:38:04Z</time>
      </trkpt>
      <trkpt lat="47.7234" lon="5.0823">
        <ele>461.73</ele>
        <time>2021-08-21T10:38:17Z</time>
      </trkpt>
      <trkpt lat="47.7234" lon="5.08242">
        <ele>462.75</ele>
        <time>2021-08-21T10:38:31Z</time>
      </trkpt>
      <trkpt lat="47.72341" lon="5.08255">
        <ele>463.14</ele>
        <time>2021-08-21T10:38:44Z</time>
      </trkpt>
      <trkpt lat="47.72342" lon="5.08267">
        <ele>463.48</ele>
        <time>2021-08-21T10:38:56Z</time>
      </trkpt>
      <trkpt lat="47.72346" lon="5.0828">
        <ele>464.67</ele>
        <time>2021-08-21T10:39:10Z</time>
      </trkpt>
      <trkpt lat="47.72349" lon="5.08297">
        <ele>465.48</ele>
        <time>2021-08-21T10:39:24Z</time>
      </trkpt>
      <trkpt lat="47.72352" lon="5.08313">
        <ele>466.06</ele>
        <time>2021-08-21T10:39:41Z</time>
      </trkpt>
      <trkpt lat="47.72353" lon="5.08318">
        <ele>466.72</ele>
        <time>2021-08-21T10:39:57Z</time>
      </trkpt>
      <trkpt lat="47.72351" lon="5.08318">
        <ele>466.97</ele>
        <time>2021-08-21T10:40:38Z</time>
      </trkpt>
      <trkpt lat="47.72354" lon="5.08327">
        <ele>467</ele>
        <time>2021-08-21T10:40:45Z</time>
      </trkpt>
      <trkpt lat="47.72355" lon="5.08334">
        <ele>467.33</ele>
        <time>2021-08-21T10:40:50Z</time>
      </trkpt>
      <trkpt lat="47.7236" lon="5.08349">
        <ele>467.91</ele>
        <time>2021-08-21T10:41:02Z</time>
      </trkpt>
      <trkpt lat="47.72362" lon="5.08366">
        <ele>468.18</ele>
        <time>2021-08-21T10:41:12Z</time>
      </trkpt>
      <trkpt lat="47.72364" lon="5.08384">
        <ele>468.7</ele>
        <time>2021-08-21T10:41:25Z</time>
      </trkpt>
      <trkpt lat="47.72365" lon="5.08389">
        <ele>468.84</ele>
        <time>2021-08-21T10:41:29Z</time>
      </trkpt>
      <trkpt lat="47.72368" lon="5.084">
        <ele>469.02</ele>
        <time>2021-08-21T10:41:37Z</time>
      </trkpt>
      <trkpt lat="47.72373" lon="5.08417">
        <ele>469.25</ele>
        <time>2021-08-21T10:41:47Z</time>
      </trkpt>
      <trkpt lat="47.72373" lon="5.08421">
        <ele>469.49</ele>
        <time>2021-08-21T10:41:50Z</time>
      </trkpt>
      <trkpt lat="47.72375" lon="5.0844">
        <ele>469.95</ele>
        <time>2021-08-21T10:42:02Z</time>
      </trkpt>
      <trkpt lat="47.72376" lon="5.08439">
        <ele>470</ele>
        <time>2021-08-21T10:42:14Z</time>
      </trkpt>
      <trkpt lat="47.72369" lon="5.08428">
        <ele>469.85</ele>
        <time>2021-08-21T10:42:29Z</time>
      </trkpt>
      <trkpt lat="47.72362" lon="5.08429">
        <ele>469.73</ele>
        <time>2021-08-21T10:42:37Z</time>
      </trkpt>
      <trkpt lat="47.72355" lon="5.08428">
        <ele>469.29</ele>
        <time>2021-08-21T10:42:44Z</time>
      </trkpt>
      <trkpt lat="47.72347" lon="5.08428">
        <ele>469.24</ele>
        <time>2021-08-21T10:42:52Z</time>
      </trkpt>
      <trkpt lat="47.72334" lon="5.08422">
        <ele>468.94</ele>
        <time>2021-08-21T10:43:05Z</time>
      </trkpt>
      <trkpt lat="47.72327" lon="5.08421">
        <ele>468.72</ele>
        <time>2021-08-21T10:43:23Z</time>
      </trkpt>
      <trkpt lat="47.72322" lon="5.08423">
        <ele>468.61</ele>
        <time>2021-08-21T10:44:31Z</time>
      </trkpt>
      <trkpt lat="47.7231" lon="5.0842">
        <ele>468.34</ele>
        <time>2021-08-21T10:44:45Z</time>
      </trkpt>
      <trkpt lat="47.72305" lon="5.0842">
        <ele>468.22</ele>
        <time>2021-08-21T10:45:01Z</time>
      </trkpt>
      <trkpt lat="47.72294" lon="5.08415">
        <ele>467.96</ele>
        <time>2021-08-21T10:45:13Z</time>
      </trkpt>
      <trkpt lat="47.72279" lon="5.08416">
        <ele>467.57</ele>
        <time>2021-08-21T10:45:26Z</time>
      </trkpt>
      <trkpt lat="47.72268" lon="5.08413">
        <ele>467.29</ele>
        <time>2021-08-21T10:45:37Z</time>
      </trkpt>
      <trkpt lat="47.72251" lon="5.08411">
        <ele>466.82</ele>
        <time>2021-08-21T10:45:55Z</time>
      </trkpt>
      <trkpt lat="47.72238" lon="5.0841">
        <ele>466.41</ele>
        <time>2021-08-21T10:46:08Z</time>
      </trkpt>
      <trkpt lat="47.72222" lon="5.08406">
        <ele>466.19</ele>
        <time>2021-08-21T10:46:22Z</time>
      </trkpt>
      <trkpt lat="47.72213" lon="5.08407">
        <ele>465.9</ele>
        <time>2021-08-21T10:46:31Z</time>
      </trkpt>
      <trkpt lat="47.72199" lon="5.08404">
        <ele>465.21</ele>
        <time>2021-08-21T10:46:45Z</time>
      </trkpt>
      <trkpt lat="47.72189" lon="5.08403">
        <ele>466.23</ele>
        <time>2021-08-21T10:46:54Z</time>
      </trkpt>
      <trkpt lat="47.72189" lon="5.08418">
        <ele>466.63</ele>
        <time>2021-08-21T10:47:04Z</time>
      </trkpt>
      <trkpt lat="47.72197" lon="5.08443">
        <ele>466.65</ele>
        <time>2021-08-21T10:47:19Z</time>
      </trkpt>
      <trkpt lat="47.72204" lon="5.08463">
        <ele>466.91</ele>
        <time>2021-08-21T10:47:31Z</time>
      </trkpt>
      <trkpt lat="47.7221" lon="5.08486">
        <ele>466.95</ele>
        <time>2021-08-21T10:47:44Z</time>
      </trkpt>
      <trkpt lat="47.72216" lon="5.08512">
        <ele>466.87</ele>
        <time>2021-08-21T10:47:59Z</time>
      </trkpt>
      <trkpt lat="47.72222" lon="5.08535">
        <ele>467</ele>
        <time>2021-08-21T10:48:12Z</time>
      </trkpt>
      <trkpt lat="47.72228" lon="5.08559">
        <ele>467.07</ele>
        <time>2021-08-21T10:48:26Z</time>
      </trkpt>
      <trkpt lat="47.72234" lon="5.0859">
        <ele>467.26</ele>
        <time>2021-08-21T10:48:43Z</time>
      </trkpt>
      <trkpt lat="47.72234" lon="5.08603">
        <ele>467.47</ele>
        <time>2021-08-21T10:48:56Z</time>
      </trkpt>
      <trkpt lat="47.72238" lon="5.08611">
        <ele>467.52</ele>
        <time>2021-08-21T10:49:03Z</time>
      </trkpt>
      <trkpt lat="47.72241" lon="5.08643">
        <ele>467.8</ele>
        <time>2021-08-21T10:49:20Z</time>
      </trkpt>
      <trkpt lat="47.72244" lon="5.08671">
        <ele>467.85</ele>
        <time>2021-08-21T10:49:35Z</time>
      </trkpt>
      <trkpt lat="47.72247" lon="5.08697">
        <ele>468.05</ele>
        <time>2021-08-21T10:49:48Z</time>
      </trkpt>
      <trkpt lat="47.72248" lon="5.08728">
        <ele>468.2</ele>
        <time>2021-08-21T10:50:05Z</time>
      </trkpt>
      <trkpt lat="47.72249" lon="5.08743">
        <ele>468.1</ele>
        <time>2021-08-21T10:50:13Z</time>
      </trkpt>
      <trkpt lat="47.7225" lon="5.08747">
        <ele>468.18</ele>
        <time>2021-08-21T10:50:15Z</time>
      </trkpt>
      <trkpt lat="47.72251" lon="5.0876">
        <ele>468.34</ele>
        <time>2021-08-21T10:50:22Z</time>
      </trkpt>
    </trkseg>
  </trk>
</gpx>